<?xml version="1.0" encoding="UTF-8" standalone="no" ?>
<gpx xmlns="http://www.topografix.com/GPX/1/1" xmlns:xsi="http://www.w3.org/2001/XMLSchema-instance" xsi:schemaLocation="http://www.topografix.com/GPX/1/1 http://www.topografix.com/GPX/1/1/gpx.xsd" version="1.1" creator="VisuGPX - https://www.visugpx.com">
  <metadata>
    <name>Revard-Nivolet</name>
    <desc><![CDATA[En boucle depuis Aix-Les-Bains]]></desc>
  </metadata>
  <trk>
    <name><![CDATA[2017-05-27-01]]></name>
    <trkseg>
      <trkpt lat="45.68826" lon="5.91045">
        <ele>247</ele>
        <time>2017-05-27T05:28:55Z</time>
      </trkpt>
      <trkpt lat="45.68826" lon="5.91046">
        <ele>248.2</ele>
        <time>2017-05-27T05:28:58Z</time>
      </trkpt>
      <trkpt lat="45.68813" lon="5.91107">
        <ele>256.2</ele>
        <time>2017-05-27T05:30:29Z</time>
      </trkpt>
      <trkpt lat="45.68808" lon="5.91173">
        <ele>256.6</ele>
        <time>2017-05-27T05:31:06Z</time>
      </trkpt>
      <trkpt lat="45.68798" lon="5.91237">
        <ele>249.5</ele>
        <time>2017-05-27T05:31:45Z</time>
      </trkpt>
      <trkpt lat="45.68792" lon="5.91301">
        <ele>264</ele>
        <time>2017-05-27T05:32:23Z</time>
      </trkpt>
      <trkpt lat="45.68792" lon="5.91366">
        <ele>283.7</ele>
        <time>2017-05-27T05:32:56Z</time>
      </trkpt>
      <trkpt lat="45.68803" lon="5.91428">
        <ele>280.6</ele>
        <time>2017-05-27T05:33:28Z</time>
      </trkpt>
      <trkpt lat="45.68814" lon="5.91492">
        <ele>278</ele>
        <time>2017-05-27T05:34:07Z</time>
      </trkpt>
      <trkpt lat="45.68787" lon="5.91546">
        <ele>269.8</ele>
        <time>2017-05-27T05:34:49Z</time>
      </trkpt>
      <trkpt lat="45.6876" lon="5.91598">
        <ele>271.2</ele>
        <time>2017-05-27T05:35:24Z</time>
      </trkpt>
      <trkpt lat="45.68755" lon="5.91662">
        <ele>273.3</ele>
        <time>2017-05-27T05:36:14Z</time>
      </trkpt>
      <trkpt lat="45.688" lon="5.91662">
        <ele>296.2</ele>
        <time>2017-05-27T05:37:09Z</time>
      </trkpt>
      <trkpt lat="45.68845" lon="5.91662">
        <ele>310.6</ele>
        <time>2017-05-27T05:38:01Z</time>
      </trkpt>
      <trkpt lat="45.68828" lon="5.91723">
        <ele>295.3</ele>
        <time>2017-05-27T05:38:48Z</time>
      </trkpt>
      <trkpt lat="45.68868" lon="5.91756">
        <ele>296.8</ele>
        <time>2017-05-27T05:40:08Z</time>
      </trkpt>
      <trkpt lat="45.68867" lon="5.91822">
        <ele>301.1</ele>
        <time>2017-05-27T05:41:17Z</time>
      </trkpt>
      <trkpt lat="45.68859" lon="5.91887">
        <ele>307.4</ele>
        <time>2017-05-27T05:42:00Z</time>
      </trkpt>
      <trkpt lat="45.68836" lon="5.91942">
        <ele>310.5</ele>
        <time>2017-05-27T05:42:39Z</time>
      </trkpt>
      <trkpt lat="45.68827" lon="5.92006">
        <ele>316.1</ele>
        <time>2017-05-27T05:43:20Z</time>
      </trkpt>
      <trkpt lat="45.68811" lon="5.92068">
        <ele>329.6</ele>
        <time>2017-05-27T05:44:01Z</time>
      </trkpt>
      <trkpt lat="45.68791" lon="5.92126">
        <ele>335.8</ele>
        <time>2017-05-27T05:44:38Z</time>
      </trkpt>
      <trkpt lat="45.68774" lon="5.92191">
        <ele>343.6</ele>
        <time>2017-05-27T05:45:13Z</time>
      </trkpt>
      <trkpt lat="45.68751" lon="5.92247">
        <ele>343.7</ele>
        <time>2017-05-27T05:45:49Z</time>
      </trkpt>
      <trkpt lat="45.68726" lon="5.92301">
        <ele>335.6</ele>
        <time>2017-05-27T05:46:20Z</time>
      </trkpt>
      <trkpt lat="45.68704" lon="5.9236">
        <ele>349.3</ele>
        <time>2017-05-27T05:46:55Z</time>
      </trkpt>
      <trkpt lat="45.68682" lon="5.92418">
        <ele>347.5</ele>
        <time>2017-05-27T05:47:26Z</time>
      </trkpt>
      <trkpt lat="45.68663" lon="5.92477">
        <ele>348.9</ele>
        <time>2017-05-27T05:48:01Z</time>
      </trkpt>
      <trkpt lat="45.68633" lon="5.92525">
        <ele>362.8</ele>
        <time>2017-05-27T05:48:34Z</time>
      </trkpt>
      <trkpt lat="45.68596" lon="5.92567">
        <ele>359.4</ele>
        <time>2017-05-27T05:49:06Z</time>
      </trkpt>
      <trkpt lat="45.68552" lon="5.92585">
        <ele>358.3</ele>
        <time>2017-05-27T05:49:34Z</time>
      </trkpt>
      <trkpt lat="45.68508" lon="5.92608">
        <ele>359.8</ele>
        <time>2017-05-27T05:50:18Z</time>
      </trkpt>
      <trkpt lat="45.68495" lon="5.92671">
        <ele>367.1</ele>
        <time>2017-05-27T05:50:49Z</time>
      </trkpt>
      <trkpt lat="45.68487" lon="5.92736">
        <ele>363.9</ele>
        <time>2017-05-27T05:51:21Z</time>
      </trkpt>
      <trkpt lat="45.68485" lon="5.92801">
        <ele>371.1</ele>
        <time>2017-05-27T05:51:56Z</time>
      </trkpt>
      <trkpt lat="45.68478" lon="5.92866">
        <ele>367.8</ele>
        <time>2017-05-27T05:52:37Z</time>
      </trkpt>
      <trkpt lat="45.68479" lon="5.92931">
        <ele>375.8</ele>
        <time>2017-05-27T05:53:03Z</time>
      </trkpt>
      <trkpt lat="45.68463" lon="5.92994">
        <ele>379.6</ele>
        <time>2017-05-27T05:53:32Z</time>
      </trkpt>
      <trkpt lat="45.68441" lon="5.93052">
        <ele>379</ele>
        <time>2017-05-27T05:54:05Z</time>
      </trkpt>
      <trkpt lat="45.68425" lon="5.93113">
        <ele>380.9</ele>
        <time>2017-05-27T05:54:38Z</time>
      </trkpt>
      <trkpt lat="45.68415" lon="5.93175">
        <ele>382.6</ele>
        <time>2017-05-27T05:55:10Z</time>
      </trkpt>
      <trkpt lat="45.68403" lon="5.93238">
        <ele>388.4</ele>
        <time>2017-05-27T05:55:41Z</time>
      </trkpt>
      <trkpt lat="45.6839" lon="5.93301">
        <ele>391.2</ele>
        <time>2017-05-27T05:56:10Z</time>
      </trkpt>
      <trkpt lat="45.68369" lon="5.93359">
        <ele>390.3</ele>
        <time>2017-05-27T05:56:41Z</time>
      </trkpt>
      <trkpt lat="45.68348" lon="5.93417">
        <ele>395.4</ele>
        <time>2017-05-27T05:57:16Z</time>
      </trkpt>
      <trkpt lat="45.68319" lon="5.9347">
        <ele>398.6</ele>
        <time>2017-05-27T05:57:48Z</time>
      </trkpt>
      <trkpt lat="45.68295" lon="5.93524">
        <ele>408.4</ele>
        <time>2017-05-27T05:58:29Z</time>
      </trkpt>
      <trkpt lat="45.68334" lon="5.9356">
        <ele>413.6</ele>
        <time>2017-05-27T05:59:00Z</time>
      </trkpt>
      <trkpt lat="45.68379" lon="5.9356">
        <ele>410.5</ele>
        <time>2017-05-27T05:59:38Z</time>
      </trkpt>
      <trkpt lat="45.68409" lon="5.93611">
        <ele>417.6</ele>
        <time>2017-05-27T06:00:34Z</time>
      </trkpt>
      <trkpt lat="45.68453" lon="5.93631">
        <ele>416.6</ele>
        <time>2017-05-27T06:01:11Z</time>
      </trkpt>
      <trkpt lat="45.68499" lon="5.93618">
        <ele>416.1</ele>
        <time>2017-05-27T06:01:42Z</time>
      </trkpt>
      <trkpt lat="45.68545" lon="5.93627">
        <ele>419</ele>
        <time>2017-05-27T06:02:11Z</time>
      </trkpt>
      <trkpt lat="45.68578" lon="5.93672">
        <ele>408.7</ele>
        <time>2017-05-27T06:05:12Z</time>
      </trkpt>
      <trkpt lat="45.68564" lon="5.93733">
        <ele>431.4</ele>
        <time>2017-05-27T06:06:23Z</time>
      </trkpt>
      <trkpt lat="45.6855" lon="5.93794">
        <ele>435.1</ele>
        <time>2017-05-27T06:07:06Z</time>
      </trkpt>
      <trkpt lat="45.68523" lon="5.93849">
        <ele>430.6</ele>
        <time>2017-05-27T06:07:46Z</time>
      </trkpt>
      <trkpt lat="45.68523" lon="5.93914">
        <ele>445.9</ele>
        <time>2017-05-27T06:08:49Z</time>
      </trkpt>
      <trkpt lat="45.68514" lon="5.93978">
        <ele>464.5</ele>
        <time>2017-05-27T06:09:27Z</time>
      </trkpt>
      <trkpt lat="45.68498" lon="5.94038">
        <ele>469.6</ele>
        <time>2017-05-27T06:10:03Z</time>
      </trkpt>
      <trkpt lat="45.68484" lon="5.941">
        <ele>461.5</ele>
        <time>2017-05-27T06:10:45Z</time>
      </trkpt>
      <trkpt lat="45.68472" lon="5.94162">
        <ele>463</ele>
        <time>2017-05-27T06:11:30Z</time>
      </trkpt>
      <trkpt lat="45.68473" lon="5.94227">
        <ele>469.4</ele>
        <time>2017-05-27T06:12:19Z</time>
      </trkpt>
      <trkpt lat="45.68482" lon="5.94291">
        <ele>482.8</ele>
        <time>2017-05-27T06:13:09Z</time>
      </trkpt>
      <trkpt lat="45.68509" lon="5.94343">
        <ele>496</ele>
        <time>2017-05-27T06:13:56Z</time>
      </trkpt>
      <trkpt lat="45.6853" lon="5.944">
        <ele>510.5</ele>
        <time>2017-05-27T06:14:42Z</time>
      </trkpt>
      <trkpt lat="45.6856" lon="5.94449">
        <ele>518.1</ele>
        <time>2017-05-27T06:16:49Z</time>
      </trkpt>
      <trkpt lat="45.68586" lon="5.94502">
        <ele>530.6</ele>
        <time>2017-05-27T06:17:34Z</time>
      </trkpt>
      <trkpt lat="45.6861" lon="5.94557">
        <ele>538.2</ele>
        <time>2017-05-27T06:18:17Z</time>
      </trkpt>
      <trkpt lat="45.68639" lon="5.94607">
        <ele>543.1</ele>
        <time>2017-05-27T06:19:02Z</time>
      </trkpt>
      <trkpt lat="45.68664" lon="5.94663">
        <ele>551.4</ele>
        <time>2017-05-27T06:19:40Z</time>
      </trkpt>
      <trkpt lat="45.68688" lon="5.94718">
        <ele>557.9</ele>
        <time>2017-05-27T06:20:19Z</time>
      </trkpt>
      <trkpt lat="45.68729" lon="5.94748">
        <ele>580.6</ele>
        <time>2017-05-27T06:21:05Z</time>
      </trkpt>
      <trkpt lat="45.68773" lon="5.94761">
        <ele>600.7</ele>
        <time>2017-05-27T06:21:50Z</time>
      </trkpt>
      <trkpt lat="45.68818" lon="5.94776">
        <ele>592.6</ele>
        <time>2017-05-27T06:22:26Z</time>
      </trkpt>
      <trkpt lat="45.68856" lon="5.94813">
        <ele>590.1</ele>
        <time>2017-05-27T06:23:04Z</time>
      </trkpt>
      <trkpt lat="45.68896" lon="5.94843">
        <ele>610.3</ele>
        <time>2017-05-27T06:23:49Z</time>
      </trkpt>
      <trkpt lat="45.68939" lon="5.94865">
        <ele>610.8</ele>
        <time>2017-05-27T06:24:29Z</time>
      </trkpt>
      <trkpt lat="45.68972" lon="5.9491">
        <ele>616.4</ele>
        <time>2017-05-27T06:25:09Z</time>
      </trkpt>
      <trkpt lat="45.6899" lon="5.94971">
        <ele>619.3</ele>
        <time>2017-05-27T06:25:46Z</time>
      </trkpt>
      <trkpt lat="45.6899" lon="5.95036">
        <ele>623.2</ele>
        <time>2017-05-27T06:26:20Z</time>
      </trkpt>
      <trkpt lat="45.68984" lon="5.95101">
        <ele>633</ele>
        <time>2017-05-27T06:27:32Z</time>
      </trkpt>
      <trkpt lat="45.68981" lon="5.95165">
        <ele>639.2</ele>
        <time>2017-05-27T06:28:12Z</time>
      </trkpt>
      <trkpt lat="45.69019" lon="5.95203">
        <ele>646</ele>
        <time>2017-05-27T06:29:04Z</time>
      </trkpt>
      <trkpt lat="45.69003" lon="5.95265">
        <ele>653.3</ele>
        <time>2017-05-27T06:30:06Z</time>
      </trkpt>
      <trkpt lat="45.69031" lon="5.95316">
        <ele>658.9</ele>
        <time>2017-05-27T06:30:44Z</time>
      </trkpt>
      <trkpt lat="45.69054" lon="5.95374">
        <ele>667.2</ele>
        <time>2017-05-27T06:31:25Z</time>
      </trkpt>
      <trkpt lat="45.69079" lon="5.95429">
        <ele>678.3</ele>
        <time>2017-05-27T06:32:03Z</time>
      </trkpt>
      <trkpt lat="45.69107" lon="5.95481">
        <ele>679.5</ele>
        <time>2017-05-27T06:32:39Z</time>
      </trkpt>
      <trkpt lat="45.69119" lon="5.95543">
        <ele>692.1</ele>
        <time>2017-05-27T06:33:16Z</time>
      </trkpt>
      <trkpt lat="45.69124" lon="5.95609">
        <ele>694.5</ele>
        <time>2017-05-27T06:33:52Z</time>
      </trkpt>
      <trkpt lat="45.69108" lon="5.95672">
        <ele>704.3</ele>
        <time>2017-05-27T06:34:29Z</time>
      </trkpt>
      <trkpt lat="45.69094" lon="5.95735">
        <ele>718.3</ele>
        <time>2017-05-27T06:35:06Z</time>
      </trkpt>
      <trkpt lat="45.69087" lon="5.95798">
        <ele>726.7</ele>
        <time>2017-05-27T06:35:38Z</time>
      </trkpt>
      <trkpt lat="45.69074" lon="5.95861">
        <ele>725.8</ele>
        <time>2017-05-27T06:36:16Z</time>
      </trkpt>
      <trkpt lat="45.69084" lon="5.95925">
        <ele>732.9</ele>
        <time>2017-05-27T06:36:59Z</time>
      </trkpt>
      <trkpt lat="45.69114" lon="5.95975">
        <ele>741.2</ele>
        <time>2017-05-27T06:37:37Z</time>
      </trkpt>
      <trkpt lat="45.69142" lon="5.96025">
        <ele>743.7</ele>
        <time>2017-05-27T06:38:11Z</time>
      </trkpt>
      <trkpt lat="45.69157" lon="5.96086">
        <ele>755</ele>
        <time>2017-05-27T06:38:47Z</time>
      </trkpt>
      <trkpt lat="45.69173" lon="5.96147">
        <ele>760.4</ele>
        <time>2017-05-27T06:39:24Z</time>
      </trkpt>
      <trkpt lat="45.69185" lon="5.9621">
        <ele>766.2</ele>
        <time>2017-05-27T06:40:02Z</time>
      </trkpt>
      <trkpt lat="45.69197" lon="5.96274">
        <ele>783</ele>
        <time>2017-05-27T06:41:35Z</time>
      </trkpt>
      <trkpt lat="45.69218" lon="5.9633">
        <ele>784.3</ele>
        <time>2017-05-27T06:42:09Z</time>
      </trkpt>
      <trkpt lat="45.69243" lon="5.96386">
        <ele>795</ele>
        <time>2017-05-27T06:43:16Z</time>
      </trkpt>
      <trkpt lat="45.6926" lon="5.96448">
        <ele>791.8</ele>
        <time>2017-05-27T06:43:58Z</time>
      </trkpt>
      <trkpt lat="45.69287" lon="5.96499">
        <ele>795.7</ele>
        <time>2017-05-27T06:44:29Z</time>
      </trkpt>
      <trkpt lat="45.69317" lon="5.96551">
        <ele>810.5</ele>
        <time>2017-05-27T06:45:18Z</time>
      </trkpt>
      <trkpt lat="45.69293" lon="5.96606">
        <ele>821.5</ele>
        <time>2017-05-27T06:46:18Z</time>
      </trkpt>
      <trkpt lat="45.69266" lon="5.96659">
        <ele>844.2</ele>
        <time>2017-05-27T06:47:05Z</time>
      </trkpt>
      <trkpt lat="45.69253" lon="5.96722">
        <ele>855.3</ele>
        <time>2017-05-27T06:47:53Z</time>
      </trkpt>
      <trkpt lat="45.69233" lon="5.96781">
        <ele>861.1</ele>
        <time>2017-05-27T06:48:42Z</time>
      </trkpt>
      <trkpt lat="45.69195" lon="5.96817">
        <ele>885.2</ele>
        <time>2017-05-27T06:49:33Z</time>
      </trkpt>
      <trkpt lat="45.6916" lon="5.96858">
        <ele>890.6</ele>
        <time>2017-05-27T06:50:22Z</time>
      </trkpt>
      <trkpt lat="45.69137" lon="5.96914">
        <ele>908.1</ele>
        <time>2017-05-27T06:51:14Z</time>
      </trkpt>
      <trkpt lat="45.69135" lon="5.96978">
        <ele>912.3</ele>
        <time>2017-05-27T06:52:04Z</time>
      </trkpt>
      <trkpt lat="45.69121" lon="5.9704">
        <ele>958.4</ele>
        <time>2017-05-27T06:53:18Z</time>
      </trkpt>
      <trkpt lat="45.69103" lon="5.971">
        <ele>968.5</ele>
        <time>2017-05-27T06:54:25Z</time>
      </trkpt>
      <trkpt lat="45.69077" lon="5.97154">
        <ele>971.2</ele>
        <time>2017-05-27T06:55:36Z</time>
      </trkpt>
      <trkpt lat="45.69078" lon="5.97219">
        <ele>1002.1</ele>
        <time>2017-05-27T06:57:14Z</time>
      </trkpt>
      <trkpt lat="45.69093" lon="5.9728">
        <ele>1006.7</ele>
        <time>2017-05-27T06:58:40Z</time>
      </trkpt>
      <trkpt lat="45.69109" lon="5.97341">
        <ele>1044.5</ele>
        <time>2017-05-27T07:00:54Z</time>
      </trkpt>
      <trkpt lat="45.69148" lon="5.97373">
        <ele>1081.7</ele>
        <time>2017-05-27T07:03:26Z</time>
      </trkpt>
      <trkpt lat="45.69166" lon="5.97433">
        <ele>1103.8</ele>
        <time>2017-05-27T07:07:15Z</time>
      </trkpt>
      <trkpt lat="45.69173" lon="5.97497">
        <ele>1125.5</ele>
        <time>2017-05-27T07:08:34Z</time>
      </trkpt>
      <trkpt lat="45.6917" lon="5.97561">
        <ele>1136.9</ele>
        <time>2017-05-27T07:09:37Z</time>
      </trkpt>
      <trkpt lat="45.69154" lon="5.97622">
        <ele>1161.9</ele>
        <time>2017-05-27T07:10:52Z</time>
      </trkpt>
      <trkpt lat="45.69112" lon="5.976">
        <ele>1175.1</ele>
        <time>2017-05-27T07:12:22Z</time>
      </trkpt>
      <trkpt lat="45.69068" lon="5.97621">
        <ele>1197</ele>
        <time>2017-05-27T07:14:17Z</time>
      </trkpt>
      <trkpt lat="45.69025" lon="5.97602">
        <ele>1216</ele>
        <time>2017-05-27T07:15:23Z</time>
      </trkpt>
      <trkpt lat="45.6898" lon="5.976">
        <ele>1237.9</ele>
        <time>2017-05-27T07:16:45Z</time>
      </trkpt>
      <trkpt lat="45.68935" lon="5.97598">
        <ele>1253.2</ele>
        <time>2017-05-27T07:18:02Z</time>
      </trkpt>
      <trkpt lat="45.68889" lon="5.97599">
        <ele>1268.2</ele>
        <time>2017-05-27T07:19:24Z</time>
      </trkpt>
      <trkpt lat="45.68844" lon="5.97603">
        <ele>1291.6</ele>
        <time>2017-05-27T07:20:55Z</time>
      </trkpt>
      <trkpt lat="45.68799" lon="5.97606">
        <ele>1312.2</ele>
        <time>2017-05-27T07:24:21Z</time>
      </trkpt>
      <trkpt lat="45.68754" lon="5.9761">
        <ele>1338.6</ele>
        <time>2017-05-27T07:25:46Z</time>
      </trkpt>
      <trkpt lat="45.68708" lon="5.97599">
        <ele>1358.7</ele>
        <time>2017-05-27T07:27:08Z</time>
      </trkpt>
      <trkpt lat="45.68663" lon="5.9759">
        <ele>1370.2</ele>
        <time>2017-05-27T07:28:24Z</time>
      </trkpt>
      <trkpt lat="45.68619" lon="5.97577">
        <ele>1396.3</ele>
        <time>2017-05-27T07:30:28Z</time>
      </trkpt>
      <trkpt lat="45.68636" lon="5.97637">
        <ele>1427.9</ele>
        <time>2017-05-27T07:33:15Z</time>
      </trkpt>
      <trkpt lat="45.68626" lon="5.977">
        <ele>1465.7</ele>
        <time>2017-05-27T07:36:30Z</time>
      </trkpt>
      <trkpt lat="45.68592" lon="5.97743">
        <ele>1489.9</ele>
        <time>2017-05-27T07:38:29Z</time>
      </trkpt>
      <trkpt lat="45.6855" lon="5.97719">
        <ele>1521.2</ele>
        <time>2017-05-27T07:41:34Z</time>
      </trkpt>
      <trkpt lat="45.68515" lon="5.97676">
        <ele>1521.4</ele>
        <time>2017-05-27T07:43:59Z</time>
      </trkpt>
      <trkpt lat="45.68471" lon="5.97654">
        <ele>1533</ele>
        <time>2017-05-27T07:45:07Z</time>
      </trkpt>
      <trkpt lat="45.68442" lon="5.97603">
        <ele>1539.1</ele>
        <time>2017-05-27T07:46:50Z</time>
      </trkpt>
      <trkpt lat="45.68404" lon="5.97569">
        <ele>1542.7</ele>
        <time>2017-05-27T07:47:26Z</time>
      </trkpt>
      <trkpt lat="45.68358" lon="5.97577">
        <ele>1544.7</ele>
        <time>2017-05-27T07:48:05Z</time>
      </trkpt>
      <trkpt lat="45.6833" lon="5.97526">
        <ele>1538.3</ele>
        <time>2017-05-27T07:48:59Z</time>
      </trkpt>
      <trkpt lat="45.68288" lon="5.975">
        <ele>1534.5</ele>
        <time>2017-05-27T07:49:42Z</time>
      </trkpt>
      <trkpt lat="45.6825" lon="5.97534">
        <ele>1536.1</ele>
        <time>2017-05-27T07:50:30Z</time>
      </trkpt>
      <trkpt lat="45.68204" lon="5.97525">
        <ele>1539.8</ele>
        <time>2017-05-27T07:51:08Z</time>
      </trkpt>
      <trkpt lat="45.68165" lon="5.97494">
        <ele>1538</ele>
        <time>2017-05-27T07:51:46Z</time>
      </trkpt>
      <trkpt lat="45.68119" lon="5.97495">
        <ele>1537.8</ele>
        <time>2017-05-27T07:52:42Z</time>
      </trkpt>
      <trkpt lat="45.68075" lon="5.9751">
        <ele>1530.5</ele>
        <time>2017-05-27T07:53:25Z</time>
      </trkpt>
      <trkpt lat="45.68035" lon="5.97541">
        <ele>1521.5</ele>
        <time>2017-05-27T07:54:03Z</time>
      </trkpt>
      <trkpt lat="45.68011" lon="5.97598">
        <ele>1508.7</ele>
        <time>2017-05-27T07:54:56Z</time>
      </trkpt>
      <trkpt lat="45.67976" lon="5.97641">
        <ele>1507.1</ele>
        <time>2017-05-27T07:55:24Z</time>
      </trkpt>
      <trkpt lat="45.67934" lon="5.97665">
        <ele>1499.9</ele>
        <time>2017-05-27T07:55:56Z</time>
      </trkpt>
      <trkpt lat="45.6789" lon="5.97682">
        <ele>1488</ele>
        <time>2017-05-27T07:56:35Z</time>
      </trkpt>
      <trkpt lat="45.6785" lon="5.97713">
        <ele>1471.6</ele>
        <time>2017-05-27T07:57:15Z</time>
      </trkpt>
      <trkpt lat="45.67812" lon="5.97748">
        <ele>1456.5</ele>
        <time>2017-05-27T07:57:51Z</time>
      </trkpt>
      <trkpt lat="45.67779" lon="5.97793">
        <ele>1454</ele>
        <time>2017-05-27T07:58:25Z</time>
      </trkpt>
      <trkpt lat="45.67761" lon="5.97855">
        <ele>1453.8</ele>
        <time>2017-05-27T07:58:59Z</time>
      </trkpt>
      <trkpt lat="45.67717" lon="5.97847">
        <ele>1464</ele>
        <time>2017-05-27T07:59:54Z</time>
      </trkpt>
      <trkpt lat="45.67672" lon="5.97831">
        <ele>1467.3</ele>
        <time>2017-05-27T08:00:28Z</time>
      </trkpt>
      <trkpt lat="45.67677" lon="5.97897">
        <ele>1463.8</ele>
        <time>2017-05-27T08:01:31Z</time>
      </trkpt>
      <trkpt lat="45.67697" lon="5.97956">
        <ele>1468.5</ele>
        <time>2017-05-27T08:02:08Z</time>
      </trkpt>
      <trkpt lat="45.67655" lon="5.97935">
        <ele>1475.7</ele>
        <time>2017-05-27T08:03:36Z</time>
      </trkpt>
      <trkpt lat="45.67615" lon="5.97903">
        <ele>1473</ele>
        <time>2017-05-27T08:04:16Z</time>
      </trkpt>
      <trkpt lat="45.6758" lon="5.97947">
        <ele>1486.9</ele>
        <time>2017-05-27T08:05:07Z</time>
      </trkpt>
      <trkpt lat="45.67537" lon="5.97922">
        <ele>1492.5</ele>
        <time>2017-05-27T08:05:52Z</time>
      </trkpt>
      <trkpt lat="45.675" lon="5.97886">
        <ele>1493.3</ele>
        <time>2017-05-27T08:06:30Z</time>
      </trkpt>
      <trkpt lat="45.67467" lon="5.9784">
        <ele>1492.4</ele>
        <time>2017-05-27T08:07:04Z</time>
      </trkpt>
      <trkpt lat="45.6743" lon="5.97805">
        <ele>1490.4</ele>
        <time>2017-05-27T08:07:38Z</time>
      </trkpt>
      <trkpt lat="45.67388" lon="5.97779">
        <ele>1487</ele>
        <time>2017-05-27T08:08:09Z</time>
      </trkpt>
      <trkpt lat="45.67344" lon="5.97763">
        <ele>1481.4</ele>
        <time>2017-05-27T08:08:45Z</time>
      </trkpt>
      <trkpt lat="45.67301" lon="5.97743">
        <ele>1481.7</ele>
        <time>2017-05-27T08:09:14Z</time>
      </trkpt>
      <trkpt lat="45.67262" lon="5.97708">
        <ele>1467.2</ele>
        <time>2017-05-27T08:09:57Z</time>
      </trkpt>
      <trkpt lat="45.67254" lon="5.97643">
        <ele>1468.7</ele>
        <time>2017-05-27T08:10:29Z</time>
      </trkpt>
      <trkpt lat="45.67215" lon="5.97611">
        <ele>1471.8</ele>
        <time>2017-05-27T08:11:01Z</time>
      </trkpt>
      <trkpt lat="45.672" lon="5.97546">
        <ele>1464.5</ele>
        <time>2017-05-27T08:11:42Z</time>
      </trkpt>
      <trkpt lat="45.67184" lon="5.97485">
        <ele>1466.8</ele>
        <time>2017-05-27T08:12:16Z</time>
      </trkpt>
      <trkpt lat="45.67152" lon="5.97438">
        <ele>1464</ele>
        <time>2017-05-27T08:12:48Z</time>
      </trkpt>
      <trkpt lat="45.6711" lon="5.97414">
        <ele>1463.3</ele>
        <time>2017-05-27T08:13:19Z</time>
      </trkpt>
      <trkpt lat="45.67067" lon="5.9739">
        <ele>1459.7</ele>
        <time>2017-05-27T08:13:51Z</time>
      </trkpt>
      <trkpt lat="45.67029" lon="5.97351">
        <ele>1440.5</ele>
        <time>2017-05-27T08:15:00Z</time>
      </trkpt>
      <trkpt lat="45.67006" lon="5.97295">
        <ele>1442.7</ele>
        <time>2017-05-27T08:15:37Z</time>
      </trkpt>
      <trkpt lat="45.66998" lon="5.9723">
        <ele>1442.3</ele>
        <time>2017-05-27T08:16:20Z</time>
      </trkpt>
      <trkpt lat="45.66992" lon="5.97166">
        <ele>1434.7</ele>
        <time>2017-05-27T08:16:53Z</time>
      </trkpt>
      <trkpt lat="45.66986" lon="5.971">
        <ele>1436.6</ele>
        <time>2017-05-27T08:17:31Z</time>
      </trkpt>
      <trkpt lat="45.66976" lon="5.97037">
        <ele>1434</ele>
        <time>2017-05-27T08:18:12Z</time>
      </trkpt>
      <trkpt lat="45.66964" lon="5.96973">
        <ele>1425.1</ele>
        <time>2017-05-27T08:18:41Z</time>
      </trkpt>
      <trkpt lat="45.66944" lon="5.96913">
        <ele>1415</ele>
        <time>2017-05-27T08:19:09Z</time>
      </trkpt>
      <trkpt lat="45.6691" lon="5.9687">
        <ele>1388.3</ele>
        <time>2017-05-27T08:19:57Z</time>
      </trkpt>
      <trkpt lat="45.66868" lon="5.96846">
        <ele>1386.7</ele>
        <time>2017-05-27T08:20:29Z</time>
      </trkpt>
      <trkpt lat="45.66827" lon="5.96816">
        <ele>1395.7</ele>
        <time>2017-05-27T08:21:14Z</time>
      </trkpt>
      <trkpt lat="45.66792" lon="5.96775">
        <ele>1403.3</ele>
        <time>2017-05-27T08:21:50Z</time>
      </trkpt>
      <trkpt lat="45.66749" lon="5.96757">
        <ele>1414.3</ele>
        <time>2017-05-27T08:22:32Z</time>
      </trkpt>
      <trkpt lat="45.66707" lon="5.96732">
        <ele>1427.2</ele>
        <time>2017-05-27T08:23:10Z</time>
      </trkpt>
      <trkpt lat="45.66661" lon="5.96717">
        <ele>1418.6</ele>
        <time>2017-05-27T08:23:40Z</time>
      </trkpt>
      <trkpt lat="45.66624" lon="5.96755">
        <ele>1416.6</ele>
        <time>2017-05-27T08:24:21Z</time>
      </trkpt>
      <trkpt lat="45.66594" lon="5.96805">
        <ele>1412</ele>
        <time>2017-05-27T08:24:55Z</time>
      </trkpt>
      <trkpt lat="45.66556" lon="5.9684">
        <ele>1417.6</ele>
        <time>2017-05-27T08:25:30Z</time>
      </trkpt>
      <trkpt lat="45.66537" lon="5.96901">
        <ele>1420.2</ele>
        <time>2017-05-27T08:26:05Z</time>
      </trkpt>
      <trkpt lat="45.66527" lon="5.96965">
        <ele>1419.3</ele>
        <time>2017-05-27T08:26:38Z</time>
      </trkpt>
      <trkpt lat="45.66519" lon="5.9703">
        <ele>1422.9</ele>
        <time>2017-05-27T08:27:13Z</time>
      </trkpt>
      <trkpt lat="45.66508" lon="5.97094">
        <ele>1418.3</ele>
        <time>2017-05-27T08:27:45Z</time>
      </trkpt>
      <trkpt lat="45.66496" lon="5.97156">
        <ele>1417.1</ele>
        <time>2017-05-27T08:28:20Z</time>
      </trkpt>
      <trkpt lat="45.6647" lon="5.9721">
        <ele>1424.4</ele>
        <time>2017-05-27T08:28:57Z</time>
      </trkpt>
      <trkpt lat="45.6643" lon="5.97241">
        <ele>1434</ele>
        <time>2017-05-27T08:29:42Z</time>
      </trkpt>
      <trkpt lat="45.66385" lon="5.97254">
        <ele>1417.1</ele>
        <time>2017-05-27T08:30:12Z</time>
      </trkpt>
      <trkpt lat="45.6634" lon="5.97267">
        <ele>1414.3</ele>
        <time>2017-05-27T08:30:46Z</time>
      </trkpt>
      <trkpt lat="45.66297" lon="5.9729">
        <ele>1412.9</ele>
        <time>2017-05-27T08:31:18Z</time>
      </trkpt>
      <trkpt lat="45.66256" lon="5.97317">
        <ele>1411.4</ele>
        <time>2017-05-27T08:31:49Z</time>
      </trkpt>
      <trkpt lat="45.66215" lon="5.97344">
        <ele>1421</ele>
        <time>2017-05-27T08:32:24Z</time>
      </trkpt>
      <trkpt lat="45.6618" lon="5.97386">
        <ele>1411.9</ele>
        <time>2017-05-27T08:33:03Z</time>
      </trkpt>
      <trkpt lat="45.66189" lon="5.9745">
        <ele>1398.9</ele>
        <time>2017-05-27T08:33:33Z</time>
      </trkpt>
      <trkpt lat="45.66196" lon="5.97514">
        <ele>1420.6</ele>
        <time>2017-05-27T08:39:30Z</time>
      </trkpt>
      <trkpt lat="45.66211" lon="5.97575">
        <ele>1409.1</ele>
        <time>2017-05-27T08:40:13Z</time>
      </trkpt>
      <trkpt lat="45.66224" lon="5.97638">
        <ele>1408.1</ele>
        <time>2017-05-27T08:41:04Z</time>
      </trkpt>
      <trkpt lat="45.66228" lon="5.97703">
        <ele>1405.8</ele>
        <time>2017-05-27T08:41:32Z</time>
      </trkpt>
      <trkpt lat="45.66197" lon="5.97752">
        <ele>1402.2</ele>
        <time>2017-05-27T08:42:08Z</time>
      </trkpt>
      <trkpt lat="45.66152" lon="5.97753">
        <ele>1404.5</ele>
        <time>2017-05-27T08:43:01Z</time>
      </trkpt>
      <trkpt lat="45.66106" lon="5.97755">
        <ele>1410</ele>
        <time>2017-05-27T08:43:35Z</time>
      </trkpt>
      <trkpt lat="45.6606" lon="5.97758">
        <ele>1410.9</ele>
        <time>2017-05-27T08:44:14Z</time>
      </trkpt>
      <trkpt lat="45.66014" lon="5.9775">
        <ele>1423.4</ele>
        <time>2017-05-27T08:44:53Z</time>
      </trkpt>
      <trkpt lat="45.65968" lon="5.97743">
        <ele>1428.9</ele>
        <time>2017-05-27T08:45:39Z</time>
      </trkpt>
      <trkpt lat="45.65921" lon="5.97741">
        <ele>1432.7</ele>
        <time>2017-05-27T08:46:28Z</time>
      </trkpt>
      <trkpt lat="45.65875" lon="5.97737">
        <ele>1430.7</ele>
        <time>2017-05-27T08:47:07Z</time>
      </trkpt>
      <trkpt lat="45.65829" lon="5.9774">
        <ele>1430.1</ele>
        <time>2017-05-27T08:47:45Z</time>
      </trkpt>
      <trkpt lat="45.65784" lon="5.97734">
        <ele>1422.3</ele>
        <time>2017-05-27T08:48:22Z</time>
      </trkpt>
      <trkpt lat="45.65738" lon="5.97731">
        <ele>1434.7</ele>
        <time>2017-05-27T08:48:49Z</time>
      </trkpt>
      <trkpt lat="45.65696" lon="5.97756">
        <ele>1406.4</ele>
        <time>2017-05-27T08:49:22Z</time>
      </trkpt>
      <trkpt lat="45.6565" lon="5.9775">
        <ele>1415.3</ele>
        <time>2017-05-27T08:50:14Z</time>
      </trkpt>
      <trkpt lat="45.65606" lon="5.97769">
        <ele>1406.4</ele>
        <time>2017-05-27T08:50:48Z</time>
      </trkpt>
      <trkpt lat="45.65561" lon="5.9778">
        <ele>1410.6</ele>
        <time>2017-05-27T08:51:18Z</time>
      </trkpt>
      <trkpt lat="45.65514" lon="5.97786">
        <ele>1405.4</ele>
        <time>2017-05-27T08:51:52Z</time>
      </trkpt>
      <trkpt lat="45.65473" lon="5.9781">
        <ele>1402.2</ele>
        <time>2017-05-27T08:52:28Z</time>
      </trkpt>
      <trkpt lat="45.65429" lon="5.97828">
        <ele>1394.6</ele>
        <time>2017-05-27T08:53:59Z</time>
      </trkpt>
      <trkpt lat="45.65409" lon="5.9777">
        <ele>1404.7</ele>
        <time>2017-05-27T08:54:51Z</time>
      </trkpt>
      <trkpt lat="45.6537" lon="5.97736">
        <ele>1404.8</ele>
        <time>2017-05-27T08:55:34Z</time>
      </trkpt>
      <trkpt lat="45.65326" lon="5.97721">
        <ele>1413.9</ele>
        <time>2017-05-27T08:56:13Z</time>
      </trkpt>
      <trkpt lat="45.65282" lon="5.97705">
        <ele>1413</ele>
        <time>2017-05-27T08:57:07Z</time>
      </trkpt>
      <trkpt lat="45.65236" lon="5.97714">
        <ele>1418.1</ele>
        <time>2017-05-27T08:57:45Z</time>
      </trkpt>
      <trkpt lat="45.65191" lon="5.97724">
        <ele>1414.4</ele>
        <time>2017-05-27T08:58:49Z</time>
      </trkpt>
      <trkpt lat="45.65148" lon="5.97706">
        <ele>1423.4</ele>
        <time>2017-05-27T08:59:27Z</time>
      </trkpt>
      <trkpt lat="45.65106" lon="5.97681">
        <ele>1437.3</ele>
        <time>2017-05-27T09:00:00Z</time>
      </trkpt>
      <trkpt lat="45.65065" lon="5.97652">
        <ele>1427.2</ele>
        <time>2017-05-27T09:00:35Z</time>
      </trkpt>
      <trkpt lat="45.65064" lon="5.97587">
        <ele>1423.2</ele>
        <time>2017-05-27T09:01:28Z</time>
      </trkpt>
      <trkpt lat="45.65035" lon="5.97538">
        <ele>1417.4</ele>
        <time>2017-05-27T09:02:07Z</time>
      </trkpt>
      <trkpt lat="45.64992" lon="5.97519">
        <ele>1437.7</ele>
        <time>2017-05-27T09:02:36Z</time>
      </trkpt>
      <trkpt lat="45.64945" lon="5.97515">
        <ele>1444.8</ele>
        <time>2017-05-27T09:03:05Z</time>
      </trkpt>
      <trkpt lat="45.64899" lon="5.97515">
        <ele>1441</ele>
        <time>2017-05-27T09:03:40Z</time>
      </trkpt>
      <trkpt lat="45.64853" lon="5.9751">
        <ele>1478.7</ele>
        <time>2017-05-27T09:04:18Z</time>
      </trkpt>
      <trkpt lat="45.64808" lon="5.97498">
        <ele>1452.4</ele>
        <time>2017-05-27T09:04:55Z</time>
      </trkpt>
      <trkpt lat="45.64764" lon="5.97484">
        <ele>1458.6</ele>
        <time>2017-05-27T09:05:34Z</time>
      </trkpt>
      <trkpt lat="45.64719" lon="5.97477">
        <ele>1468.2</ele>
        <time>2017-05-27T09:06:14Z</time>
      </trkpt>
      <trkpt lat="45.64673" lon="5.97475">
        <ele>1471.7</ele>
        <time>2017-05-27T09:06:52Z</time>
      </trkpt>
      <trkpt lat="45.64633" lon="5.97441">
        <ele>1473.5</ele>
        <time>2017-05-27T09:07:27Z</time>
      </trkpt>
      <trkpt lat="45.64612" lon="5.97383">
        <ele>1473.8</ele>
        <time>2017-05-27T09:08:08Z</time>
      </trkpt>
      <trkpt lat="45.64609" lon="5.97318">
        <ele>1486.2</ele>
        <time>2017-05-27T09:09:10Z</time>
      </trkpt>
      <trkpt lat="45.64611" lon="5.97253">
        <ele>1494.9</ele>
        <time>2017-05-27T09:09:52Z</time>
      </trkpt>
      <trkpt lat="45.64621" lon="5.9719">
        <ele>1505.2</ele>
        <time>2017-05-27T09:10:35Z</time>
      </trkpt>
      <trkpt lat="45.64623" lon="5.97125">
        <ele>1516</ele>
        <time>2017-05-27T09:11:25Z</time>
      </trkpt>
      <trkpt lat="45.64624" lon="5.9706">
        <ele>1529.5</ele>
        <time>2017-05-27T09:12:16Z</time>
      </trkpt>
      <trkpt lat="45.64595" lon="5.9701">
        <ele>1528.8</ele>
        <time>2017-05-27T09:17:26Z</time>
      </trkpt>
      <trkpt lat="45.6457" lon="5.96956">
        <ele>1525.1</ele>
        <time>2017-05-27T09:18:02Z</time>
      </trkpt>
      <trkpt lat="45.64546" lon="5.969">
        <ele>1527.7</ele>
        <time>2017-05-27T09:18:35Z</time>
      </trkpt>
      <trkpt lat="45.64568" lon="5.96842">
        <ele>1520.4</ele>
        <time>2017-05-27T09:19:19Z</time>
      </trkpt>
      <trkpt lat="45.6457" lon="5.96778">
        <ele>1520.2</ele>
        <time>2017-05-27T09:19:45Z</time>
      </trkpt>
      <trkpt lat="45.64605" lon="5.96736">
        <ele>1516.9</ele>
        <time>2017-05-27T09:20:16Z</time>
      </trkpt>
      <trkpt lat="45.64624" lon="5.96678">
        <ele>1510.9</ele>
        <time>2017-05-27T09:20:44Z</time>
      </trkpt>
      <trkpt lat="45.64624" lon="5.96612">
        <ele>1507.1</ele>
        <time>2017-05-27T09:21:21Z</time>
      </trkpt>
      <trkpt lat="45.6464" lon="5.96551">
        <ele>1516.3</ele>
        <time>2017-05-27T09:21:59Z</time>
      </trkpt>
      <trkpt lat="45.6468" lon="5.96519">
        <ele>1521.3</ele>
        <time>2017-05-27T09:22:39Z</time>
      </trkpt>
      <trkpt lat="45.64639" lon="5.96549">
        <ele>1521.1</ele>
        <time>2017-05-27T09:30:23Z</time>
      </trkpt>
      <trkpt lat="45.64601" lon="5.96585">
        <ele>1513.3</ele>
        <time>2017-05-27T09:30:59Z</time>
      </trkpt>
      <trkpt lat="45.64567" lon="5.9663">
        <ele>1513.5</ele>
        <time>2017-05-27T09:31:36Z</time>
      </trkpt>
      <trkpt lat="45.64523" lon="5.96648">
        <ele>1513.6</ele>
        <time>2017-05-27T09:32:17Z</time>
      </trkpt>
      <trkpt lat="45.64496" lon="5.96699">
        <ele>1515.1</ele>
        <time>2017-05-27T09:33:11Z</time>
      </trkpt>
      <trkpt lat="45.64469" lon="5.96646">
        <ele>1507</ele>
        <time>2017-05-27T09:33:55Z</time>
      </trkpt>
      <trkpt lat="45.6445" lon="5.96585">
        <ele>1499.8</ele>
        <time>2017-05-27T09:34:31Z</time>
      </trkpt>
      <trkpt lat="45.64418" lon="5.96538">
        <ele>1499</ele>
        <time>2017-05-27T09:35:00Z</time>
      </trkpt>
      <trkpt lat="45.64377" lon="5.96513">
        <ele>1504.1</ele>
        <time>2017-05-27T09:35:36Z</time>
      </trkpt>
      <trkpt lat="45.64333" lon="5.96495">
        <ele>1505.4</ele>
        <time>2017-05-27T09:36:00Z</time>
      </trkpt>
      <trkpt lat="45.64295" lon="5.96454">
        <ele>1505.2</ele>
        <time>2017-05-27T09:36:32Z</time>
      </trkpt>
      <trkpt lat="45.64258" lon="5.96415">
        <ele>1495.1</ele>
        <time>2017-05-27T09:37:02Z</time>
      </trkpt>
      <trkpt lat="45.64215" lon="5.96394">
        <ele>1481.9</ele>
        <time>2017-05-27T09:37:37Z</time>
      </trkpt>
      <trkpt lat="45.6417" lon="5.96392">
        <ele>1479.6</ele>
        <time>2017-05-27T09:38:02Z</time>
      </trkpt>
      <trkpt lat="45.64127" lon="5.96415">
        <ele>1470</ele>
        <time>2017-05-27T09:38:36Z</time>
      </trkpt>
      <trkpt lat="45.64092" lon="5.96454">
        <ele>1466</ele>
        <time>2017-05-27T09:39:04Z</time>
      </trkpt>
      <trkpt lat="45.64052" lon="5.96492">
        <ele>1462.1</ele>
        <time>2017-05-27T09:39:37Z</time>
      </trkpt>
      <trkpt lat="45.64013" lon="5.96524">
        <ele>1451.3</ele>
        <time>2017-05-27T09:40:08Z</time>
      </trkpt>
      <trkpt lat="45.63968" lon="5.96535">
        <ele>1445.3</ele>
        <time>2017-05-27T09:40:41Z</time>
      </trkpt>
      <trkpt lat="45.63925" lon="5.96559">
        <ele>1446.8</ele>
        <time>2017-05-27T09:41:14Z</time>
      </trkpt>
      <trkpt lat="45.63881" lon="5.96573">
        <ele>1439.9</ele>
        <time>2017-05-27T09:41:44Z</time>
      </trkpt>
      <trkpt lat="45.63835" lon="5.96578">
        <ele>1440.1</ele>
        <time>2017-05-27T09:42:10Z</time>
      </trkpt>
      <trkpt lat="45.6379" lon="5.96566">
        <ele>1434.9</ele>
        <time>2017-05-27T09:42:55Z</time>
      </trkpt>
      <trkpt lat="45.63748" lon="5.96542">
        <ele>1428.4</ele>
        <time>2017-05-27T09:43:30Z</time>
      </trkpt>
      <trkpt lat="45.63707" lon="5.96513">
        <ele>1425.8</ele>
        <time>2017-05-27T09:44:04Z</time>
      </trkpt>
      <trkpt lat="45.63677" lon="5.96465">
        <ele>1417.5</ele>
        <time>2017-05-27T09:44:41Z</time>
      </trkpt>
      <trkpt lat="45.63637" lon="5.96433">
        <ele>1417.4</ele>
        <time>2017-05-27T09:45:30Z</time>
      </trkpt>
      <trkpt lat="45.63592" lon="5.96437">
        <ele>1419.9</ele>
        <time>2017-05-27T09:46:05Z</time>
      </trkpt>
      <trkpt lat="45.63548" lon="5.96449">
        <ele>1420.8</ele>
        <time>2017-05-27T09:46:43Z</time>
      </trkpt>
      <trkpt lat="45.63503" lon="5.96459">
        <ele>1423.1</ele>
        <time>2017-05-27T09:47:21Z</time>
      </trkpt>
      <trkpt lat="45.63459" lon="5.96476">
        <ele>1428.9</ele>
        <time>2017-05-27T09:48:03Z</time>
      </trkpt>
      <trkpt lat="45.63416" lon="5.96496">
        <ele>1438.5</ele>
        <time>2017-05-27T09:48:48Z</time>
      </trkpt>
      <trkpt lat="45.63376" lon="5.96528">
        <ele>1449.9</ele>
        <time>2017-05-27T09:49:36Z</time>
      </trkpt>
      <trkpt lat="45.63338" lon="5.96567">
        <ele>1457.7</ele>
        <time>2017-05-27T09:50:15Z</time>
      </trkpt>
      <trkpt lat="45.63298" lon="5.96595">
        <ele>1464</ele>
        <time>2017-05-27T09:50:51Z</time>
      </trkpt>
      <trkpt lat="45.63258" lon="5.96626">
        <ele>1469.3</ele>
        <time>2017-05-27T09:51:27Z</time>
      </trkpt>
      <trkpt lat="45.63216" lon="5.96651">
        <ele>1477.5</ele>
        <time>2017-05-27T09:52:07Z</time>
      </trkpt>
      <trkpt lat="45.63174" lon="5.96676">
        <ele>1484.9</ele>
        <time>2017-05-27T09:52:46Z</time>
      </trkpt>
      <trkpt lat="45.63129" lon="5.96682">
        <ele>1491.9</ele>
        <time>2017-05-27T09:53:24Z</time>
      </trkpt>
      <trkpt lat="45.63084" lon="5.96694">
        <ele>1504.7</ele>
        <time>2017-05-27T09:54:10Z</time>
      </trkpt>
      <trkpt lat="45.63075" lon="5.96758">
        <ele>1509.1</ele>
        <time>2017-05-27T09:54:48Z</time>
      </trkpt>
      <trkpt lat="45.63066" lon="5.96822">
        <ele>1514.9</ele>
        <time>2017-05-27T09:55:24Z</time>
      </trkpt>
      <trkpt lat="45.63052" lon="5.96884">
        <ele>1522.5</ele>
        <time>2017-05-27T09:56:05Z</time>
      </trkpt>
      <trkpt lat="45.63015" lon="5.96926">
        <ele>1522.4</ele>
        <time>2017-05-27T09:57:48Z</time>
      </trkpt>
      <trkpt lat="45.62987" lon="5.96977">
        <ele>1539.6</ele>
        <time>2017-05-27T09:58:48Z</time>
      </trkpt>
      <trkpt lat="45.62951" lon="5.97016">
        <ele>1544.2</ele>
        <time>2017-05-27T09:59:38Z</time>
      </trkpt>
      <trkpt lat="45.62905" lon="5.9701">
        <ele>1544.7</ele>
        <time>2017-05-27T10:00:21Z</time>
      </trkpt>
      <trkpt lat="45.62878" lon="5.96957">
        <ele>1536.1</ele>
        <time>2017-05-27T10:01:00Z</time>
      </trkpt>
      <trkpt lat="45.62834" lon="5.96974">
        <ele>1529.7</ele>
        <time>2017-05-27T10:01:37Z</time>
      </trkpt>
      <trkpt lat="45.62788" lon="5.96987">
        <ele>1527.3</ele>
        <time>2017-05-27T10:02:07Z</time>
      </trkpt>
      <trkpt lat="45.62743" lon="5.96982">
        <ele>1523.8</ele>
        <time>2017-05-27T10:02:51Z</time>
      </trkpt>
      <trkpt lat="45.62698" lon="5.96983">
        <ele>1521.2</ele>
        <time>2017-05-27T10:03:41Z</time>
      </trkpt>
      <trkpt lat="45.62652" lon="5.96957">
        <ele>1530.5</ele>
        <time>2017-05-27T10:04:27Z</time>
      </trkpt>
      <trkpt lat="45.62611" lon="5.96929">
        <ele>1539.9</ele>
        <time>2017-05-27T10:05:08Z</time>
      </trkpt>
      <trkpt lat="45.62562" lon="5.96916">
        <ele>1529.6</ele>
        <time>2017-05-27T10:05:56Z</time>
      </trkpt>
      <trkpt lat="45.62518" lon="5.96929">
        <ele>1523.4</ele>
        <time>2017-05-27T10:06:40Z</time>
      </trkpt>
      <trkpt lat="45.62473" lon="5.96923">
        <ele>1517.7</ele>
        <time>2017-05-27T10:07:19Z</time>
      </trkpt>
      <trkpt lat="45.62428" lon="5.96909">
        <ele>1525.9</ele>
        <time>2017-05-27T10:07:52Z</time>
      </trkpt>
      <trkpt lat="45.62387" lon="5.96883">
        <ele>1514.2</ele>
        <time>2017-05-27T10:08:23Z</time>
      </trkpt>
      <trkpt lat="45.62347" lon="5.96852">
        <ele>1532.5</ele>
        <time>2017-05-27T10:08:58Z</time>
      </trkpt>
      <trkpt lat="45.62301" lon="5.96857">
        <ele>1540.7</ele>
        <time>2017-05-27T10:09:37Z</time>
      </trkpt>
      <trkpt lat="45.62258" lon="5.96827">
        <ele>1542.8</ele>
        <time>2017-05-27T10:10:10Z</time>
      </trkpt>
      <trkpt lat="45.62212" lon="5.96815">
        <ele>1539.1</ele>
        <time>2017-05-27T10:10:44Z</time>
      </trkpt>
      <trkpt lat="45.62167" lon="5.96806">
        <ele>1538.9</ele>
        <time>2017-05-27T10:11:14Z</time>
      </trkpt>
      <trkpt lat="45.6212" lon="5.96803">
        <ele>1541.1</ele>
        <time>2017-05-27T10:11:47Z</time>
      </trkpt>
      <trkpt lat="45.62076" lon="5.96821">
        <ele>1531.1</ele>
        <time>2017-05-27T10:12:24Z</time>
      </trkpt>
      <trkpt lat="45.62031" lon="5.96817">
        <ele>1538.1</ele>
        <time>2017-05-27T10:13:14Z</time>
      </trkpt>
      <trkpt lat="45.61991" lon="5.96848">
        <ele>1541.9</ele>
        <time>2017-05-27T10:13:49Z</time>
      </trkpt>
      <trkpt lat="45.61946" lon="5.96862">
        <ele>1537</ele>
        <time>2017-05-27T10:14:33Z</time>
      </trkpt>
      <trkpt lat="45.61901" lon="5.96861">
        <ele>1532.9</ele>
        <time>2017-05-27T10:15:16Z</time>
      </trkpt>
      <trkpt lat="45.61861" lon="5.9683">
        <ele>1527.5</ele>
        <time>2017-05-27T10:15:47Z</time>
      </trkpt>
      <trkpt lat="45.6182" lon="5.96805">
        <ele>1528.4</ele>
        <time>2017-05-27T10:16:21Z</time>
      </trkpt>
      <trkpt lat="45.61775" lon="5.9679">
        <ele>1528.6</ele>
        <time>2017-05-27T10:16:56Z</time>
      </trkpt>
      <trkpt lat="45.6173" lon="5.96795">
        <ele>1529.8</ele>
        <time>2017-05-27T10:17:31Z</time>
      </trkpt>
      <trkpt lat="45.61689" lon="5.96769">
        <ele>1530.5</ele>
        <time>2017-05-27T10:18:11Z</time>
      </trkpt>
      <trkpt lat="45.61643" lon="5.96761">
        <ele>1523.9</ele>
        <time>2017-05-27T10:18:36Z</time>
      </trkpt>
      <trkpt lat="45.616" lon="5.96745">
        <ele>1523.7</ele>
        <time>2017-05-27T10:19:08Z</time>
      </trkpt>
      <trkpt lat="45.61558" lon="5.96718">
        <ele>1527.7</ele>
        <time>2017-05-27T10:19:41Z</time>
      </trkpt>
      <trkpt lat="45.61514" lon="5.967">
        <ele>1525.1</ele>
        <time>2017-05-27T10:20:16Z</time>
      </trkpt>
      <trkpt lat="45.61475" lon="5.96667">
        <ele>1529.5</ele>
        <time>2017-05-27T10:20:47Z</time>
      </trkpt>
      <trkpt lat="45.61432" lon="5.9669">
        <ele>1529</ele>
        <time>2017-05-27T10:21:25Z</time>
      </trkpt>
      <trkpt lat="45.61394" lon="5.96653">
        <ele>1534.7</ele>
        <time>2017-05-27T10:22:17Z</time>
      </trkpt>
      <trkpt lat="45.6137" lon="5.96597">
        <ele>1538.6</ele>
        <time>2017-05-27T10:23:03Z</time>
      </trkpt>
      <trkpt lat="45.61325" lon="5.96601">
        <ele>1541.2</ele>
        <time>2017-05-27T10:33:27Z</time>
      </trkpt>
      <trkpt lat="45.61289" lon="5.96639">
        <ele>1533</ele>
        <time>2017-05-27T10:34:39Z</time>
      </trkpt>
      <trkpt lat="45.61298" lon="5.96703">
        <ele>1515.3</ele>
        <time>2017-05-27T10:50:36Z</time>
      </trkpt>
      <trkpt lat="45.61302" lon="5.9677">
        <ele>1508.8</ele>
        <time>2017-05-27T10:51:28Z</time>
      </trkpt>
      <trkpt lat="45.61284" lon="5.96831">
        <ele>1493.5</ele>
        <time>2017-05-27T10:52:21Z</time>
      </trkpt>
      <trkpt lat="45.61268" lon="5.9677">
        <ele>1444.9</ele>
        <time>2017-05-27T10:57:59Z</time>
      </trkpt>
      <trkpt lat="45.61252" lon="5.96709">
        <ele>1422.9</ele>
        <time>2017-05-27T11:00:15Z</time>
      </trkpt>
      <trkpt lat="45.61249" lon="5.96645">
        <ele>1410.7</ele>
        <time>2017-05-27T11:00:57Z</time>
      </trkpt>
      <trkpt lat="45.61231" lon="5.96583">
        <ele>1411.8</ele>
        <time>2017-05-27T11:01:31Z</time>
      </trkpt>
      <trkpt lat="45.61207" lon="5.96529">
        <ele>1395.7</ele>
        <time>2017-05-27T11:02:06Z</time>
      </trkpt>
      <trkpt lat="45.61185" lon="5.96471">
        <ele>1371.9</ele>
        <time>2017-05-27T11:04:36Z</time>
      </trkpt>
      <trkpt lat="45.61177" lon="5.96407">
        <ele>1351.3</ele>
        <time>2017-05-27T11:05:34Z</time>
      </trkpt>
      <trkpt lat="45.61214" lon="5.96369">
        <ele>1331.6</ele>
        <time>2017-05-27T11:06:11Z</time>
      </trkpt>
      <trkpt lat="45.61249" lon="5.96328">
        <ele>1326.9</ele>
        <time>2017-05-27T11:06:52Z</time>
      </trkpt>
      <trkpt lat="45.61283" lon="5.96286">
        <ele>1338.5</ele>
        <time>2017-05-27T11:07:23Z</time>
      </trkpt>
      <trkpt lat="45.61316" lon="5.9624">
        <ele>1329.4</ele>
        <time>2017-05-27T11:08:01Z</time>
      </trkpt>
      <trkpt lat="45.61357" lon="5.96214">
        <ele>1329.5</ele>
        <time>2017-05-27T11:08:38Z</time>
      </trkpt>
      <trkpt lat="45.61383" lon="5.96159">
        <ele>1322.1</ele>
        <time>2017-05-27T11:09:35Z</time>
      </trkpt>
      <trkpt lat="45.61391" lon="5.96094">
        <ele>1311.1</ele>
        <time>2017-05-27T11:10:13Z</time>
      </trkpt>
      <trkpt lat="45.61437" lon="5.96106">
        <ele>1297.3</ele>
        <time>2017-05-27T11:11:28Z</time>
      </trkpt>
      <trkpt lat="45.61475" lon="5.9607">
        <ele>1272.5</ele>
        <time>2017-05-27T11:12:54Z</time>
      </trkpt>
      <trkpt lat="45.61456" lon="5.9601">
        <ele>1249.1</ele>
        <time>2017-05-27T11:14:04Z</time>
      </trkpt>
      <trkpt lat="45.6144" lon="5.95948">
        <ele>1208.2</ele>
        <time>2017-05-27T11:16:14Z</time>
      </trkpt>
      <trkpt lat="45.61409" lon="5.95899">
        <ele>1171</ele>
        <time>2017-05-27T11:17:59Z</time>
      </trkpt>
      <trkpt lat="45.61451" lon="5.95873">
        <ele>1153.5</ele>
        <time>2017-05-27T11:19:08Z</time>
      </trkpt>
      <trkpt lat="45.61497" lon="5.95875">
        <ele>1156</ele>
        <time>2017-05-27T11:19:42Z</time>
      </trkpt>
      <trkpt lat="45.6154" lon="5.95898">
        <ele>1148.4</ele>
        <time>2017-05-27T11:20:14Z</time>
      </trkpt>
      <trkpt lat="45.61565" lon="5.95956">
        <ele>1139</ele>
        <time>2017-05-27T11:20:45Z</time>
      </trkpt>
      <trkpt lat="45.61611" lon="5.95961">
        <ele>1146.1</ele>
        <time>2017-05-27T11:21:42Z</time>
      </trkpt>
      <trkpt lat="45.61594" lon="5.959">
        <ele>1103.1</ele>
        <time>2017-05-27T11:23:33Z</time>
      </trkpt>
      <trkpt lat="45.6164" lon="5.95902">
        <ele>1071.5</ele>
        <time>2017-05-27T11:25:29Z</time>
      </trkpt>
      <trkpt lat="45.61676" lon="5.95943">
        <ele>1052.9</ele>
        <time>2017-05-27T11:26:04Z</time>
      </trkpt>
      <trkpt lat="45.61721" lon="5.95966">
        <ele>1043.1</ele>
        <time>2017-05-27T11:27:41Z</time>
      </trkpt>
      <trkpt lat="45.61753" lon="5.96012">
        <ele>1051.3</ele>
        <time>2017-05-27T11:28:13Z</time>
      </trkpt>
      <trkpt lat="45.61763" lon="5.95949">
        <ele>1028.1</ele>
        <time>2017-05-27T11:30:07Z</time>
      </trkpt>
      <trkpt lat="45.61765" lon="5.95884">
        <ele>1004.2</ele>
        <time>2017-05-27T11:30:49Z</time>
      </trkpt>
      <trkpt lat="45.61748" lon="5.95824">
        <ele>987.1</ele>
        <time>2017-05-27T11:31:18Z</time>
      </trkpt>
      <trkpt lat="45.61727" lon="5.95766">
        <ele>971.2</ele>
        <time>2017-05-27T11:31:54Z</time>
      </trkpt>
      <trkpt lat="45.61708" lon="5.95707">
        <ele>962.3</ele>
        <time>2017-05-27T11:32:33Z</time>
      </trkpt>
      <trkpt lat="45.61722" lon="5.95644">
        <ele>960.5</ele>
        <time>2017-05-27T11:33:02Z</time>
      </trkpt>
      <trkpt lat="45.61727" lon="5.95578">
        <ele>954.9</ele>
        <time>2017-05-27T11:33:39Z</time>
      </trkpt>
      <trkpt lat="45.61735" lon="5.95643">
        <ele>944.2</ele>
        <time>2017-05-27T11:35:18Z</time>
      </trkpt>
      <trkpt lat="45.61771" lon="5.95682">
        <ele>943.5</ele>
        <time>2017-05-27T11:36:22Z</time>
      </trkpt>
      <trkpt lat="45.61789" lon="5.95742">
        <ele>943</ele>
        <time>2017-05-27T11:36:59Z</time>
      </trkpt>
      <trkpt lat="45.61832" lon="5.95765">
        <ele>940.8</ele>
        <time>2017-05-27T11:37:48Z</time>
      </trkpt>
      <trkpt lat="45.61874" lon="5.9574">
        <ele>939.2</ele>
        <time>2017-05-27T11:38:26Z</time>
      </trkpt>
      <trkpt lat="45.61919" lon="5.95725">
        <ele>947.7</ele>
        <time>2017-05-27T11:38:59Z</time>
      </trkpt>
      <trkpt lat="45.61963" lon="5.95713">
        <ele>958.8</ele>
        <time>2017-05-27T11:39:34Z</time>
      </trkpt>
      <trkpt lat="45.61991" lon="5.95765">
        <ele>966.4</ele>
        <time>2017-05-27T11:40:06Z</time>
      </trkpt>
      <trkpt lat="45.62007" lon="5.95826">
        <ele>969.4</ele>
        <time>2017-05-27T11:40:41Z</time>
      </trkpt>
      <trkpt lat="45.6204" lon="5.95869">
        <ele>966.1</ele>
        <time>2017-05-27T11:41:25Z</time>
      </trkpt>
      <trkpt lat="45.62085" lon="5.95856">
        <ele>969.2</ele>
        <time>2017-05-27T11:42:05Z</time>
      </trkpt>
      <trkpt lat="45.62123" lon="5.95821">
        <ele>984.1</ele>
        <time>2017-05-27T11:43:35Z</time>
      </trkpt>
      <trkpt lat="45.62149" lon="5.95875">
        <ele>978.6</ele>
        <time>2017-05-27T11:44:10Z</time>
      </trkpt>
      <trkpt lat="45.62194" lon="5.95888">
        <ele>983.6</ele>
        <time>2017-05-27T11:44:56Z</time>
      </trkpt>
      <trkpt lat="45.62238" lon="5.959">
        <ele>987.7</ele>
        <time>2017-05-27T11:45:42Z</time>
      </trkpt>
      <trkpt lat="45.62265" lon="5.95953">
        <ele>1002.4</ele>
        <time>2017-05-27T11:46:20Z</time>
      </trkpt>
      <trkpt lat="45.6231" lon="5.95949">
        <ele>1021.7</ele>
        <time>2017-05-27T11:47:14Z</time>
      </trkpt>
      <trkpt lat="45.62355" lon="5.95941">
        <ele>1006.8</ele>
        <time>2017-05-27T11:47:56Z</time>
      </trkpt>
      <trkpt lat="45.62375" lon="5.95999">
        <ele>1021.9</ele>
        <time>2017-05-27T11:48:33Z</time>
      </trkpt>
      <trkpt lat="45.62421" lon="5.95995">
        <ele>1015.5</ele>
        <time>2017-05-27T11:49:43Z</time>
      </trkpt>
      <trkpt lat="45.62466" lon="5.95994">
        <ele>1029.7</ele>
        <time>2017-05-27T11:50:13Z</time>
      </trkpt>
      <trkpt lat="45.62512" lon="5.95993">
        <ele>1033.8</ele>
        <time>2017-05-27T11:51:02Z</time>
      </trkpt>
      <trkpt lat="45.62558" lon="5.96004">
        <ele>1045</ele>
        <time>2017-05-27T11:51:33Z</time>
      </trkpt>
      <trkpt lat="45.6259" lon="5.9605">
        <ele>1032</ele>
        <time>2017-05-27T11:52:13Z</time>
      </trkpt>
      <trkpt lat="45.6263" lon="5.96078">
        <ele>1049.8</ele>
        <time>2017-05-27T11:52:58Z</time>
      </trkpt>
      <trkpt lat="45.6267" lon="5.9611">
        <ele>1053.2</ele>
        <time>2017-05-27T11:53:33Z</time>
      </trkpt>
      <trkpt lat="45.62712" lon="5.96078">
        <ele>1041</ele>
        <time>2017-05-27T11:54:25Z</time>
      </trkpt>
      <trkpt lat="45.62722" lon="5.96015">
        <ele>1052.1</ele>
        <time>2017-05-27T11:55:10Z</time>
      </trkpt>
      <trkpt lat="45.62746" lon="5.9596">
        <ele>1036.5</ele>
        <time>2017-05-27T11:55:52Z</time>
      </trkpt>
      <trkpt lat="45.62791" lon="5.95944">
        <ele>1067.1</ele>
        <time>2017-05-27T11:56:35Z</time>
      </trkpt>
      <trkpt lat="45.62834" lon="5.95924">
        <ele>1079.8</ele>
        <time>2017-05-27T11:57:30Z</time>
      </trkpt>
      <trkpt lat="45.62878" lon="5.9591">
        <ele>1078.1</ele>
        <time>2017-05-27T11:58:10Z</time>
      </trkpt>
      <trkpt lat="45.62924" lon="5.95909">
        <ele>1086.6</ele>
        <time>2017-05-27T11:58:49Z</time>
      </trkpt>
      <trkpt lat="45.62967" lon="5.95894">
        <ele>1076.4</ele>
        <time>2017-05-27T11:59:24Z</time>
      </trkpt>
      <trkpt lat="45.63012" lon="5.95881">
        <ele>1097</ele>
        <time>2017-05-27T12:00:03Z</time>
      </trkpt>
      <trkpt lat="45.63055" lon="5.95862">
        <ele>1092.3</ele>
        <time>2017-05-27T12:00:40Z</time>
      </trkpt>
      <trkpt lat="45.63086" lon="5.95814">
        <ele>1087.3</ele>
        <time>2017-05-27T12:01:28Z</time>
      </trkpt>
      <trkpt lat="45.63132" lon="5.95801">
        <ele>1093.9</ele>
        <time>2017-05-27T12:02:05Z</time>
      </trkpt>
      <trkpt lat="45.63177" lon="5.95804">
        <ele>1101.8</ele>
        <time>2017-05-27T12:02:45Z</time>
      </trkpt>
      <trkpt lat="45.6322" lon="5.95781">
        <ele>1104.4</ele>
        <time>2017-05-27T12:03:25Z</time>
      </trkpt>
      <trkpt lat="45.63263" lon="5.95765">
        <ele>1101.1</ele>
        <time>2017-05-27T12:04:05Z</time>
      </trkpt>
      <trkpt lat="45.63297" lon="5.95722">
        <ele>1108</ele>
        <time>2017-05-27T12:04:43Z</time>
      </trkpt>
      <trkpt lat="45.63335" lon="5.95687">
        <ele>1104.9</ele>
        <time>2017-05-27T12:05:26Z</time>
      </trkpt>
      <trkpt lat="45.63381" lon="5.95686">
        <ele>1115.6</ele>
        <time>2017-05-27T12:06:05Z</time>
      </trkpt>
      <trkpt lat="45.63426" lon="5.95691">
        <ele>1140.9</ele>
        <time>2017-05-27T12:06:45Z</time>
      </trkpt>
      <trkpt lat="45.63471" lon="5.95704">
        <ele>1143.8</ele>
        <time>2017-05-27T12:07:25Z</time>
      </trkpt>
      <trkpt lat="45.63506" lon="5.95746">
        <ele>1138.2</ele>
        <time>2017-05-27T12:08:05Z</time>
      </trkpt>
      <trkpt lat="45.63546" lon="5.95782">
        <ele>1173</ele>
        <time>2017-05-27T12:15:10Z</time>
      </trkpt>
      <trkpt lat="45.63591" lon="5.95807">
        <ele>1172</ele>
        <time>2017-05-27T12:15:58Z</time>
      </trkpt>
      <trkpt lat="45.63629" lon="5.95841">
        <ele>1157.6</ele>
        <time>2017-05-27T12:16:43Z</time>
      </trkpt>
      <trkpt lat="45.63668" lon="5.95881">
        <ele>1160</ele>
        <time>2017-05-27T12:19:11Z</time>
      </trkpt>
      <trkpt lat="45.63672" lon="5.95816">
        <ele>1131</ele>
        <time>2017-05-27T12:23:55Z</time>
      </trkpt>
      <trkpt lat="45.63629" lon="5.95789">
        <ele>1119</ele>
        <time>2017-05-27T12:24:39Z</time>
      </trkpt>
      <trkpt lat="45.63592" lon="5.95744">
        <ele>1102</ele>
        <time>2017-05-27T12:25:19Z</time>
      </trkpt>
      <trkpt lat="45.63554" lon="5.95704">
        <ele>1093</ele>
        <time>2017-05-27T12:26:03Z</time>
      </trkpt>
      <trkpt lat="45.63514" lon="5.95673">
        <ele>1092</ele>
        <time>2017-05-27T12:26:43Z</time>
      </trkpt>
      <trkpt lat="45.63476" lon="5.95628">
        <ele>1086</ele>
        <time>2017-05-27T12:27:33Z</time>
      </trkpt>
      <trkpt lat="45.63489" lon="5.95563">
        <ele>1049</ele>
        <time>2017-05-27T12:28:37Z</time>
      </trkpt>
      <trkpt lat="45.63535" lon="5.95558">
        <ele>1034.4</ele>
        <time>2017-05-27T12:29:15Z</time>
      </trkpt>
      <trkpt lat="45.6358" lon="5.95564">
        <ele>1032.3</ele>
        <time>2017-05-27T12:29:54Z</time>
      </trkpt>
      <trkpt lat="45.63562" lon="5.95505">
        <ele>1004.1</ele>
        <time>2017-05-27T12:31:17Z</time>
      </trkpt>
      <trkpt lat="45.63522" lon="5.95472">
        <ele>996.6</ele>
        <time>2017-05-27T12:31:58Z</time>
      </trkpt>
      <trkpt lat="45.6348" lon="5.95449">
        <ele>992.6</ele>
        <time>2017-05-27T12:32:22Z</time>
      </trkpt>
      <trkpt lat="45.63448" lon="5.95404">
        <ele>982.8</ele>
        <time>2017-05-27T12:33:03Z</time>
      </trkpt>
      <trkpt lat="45.6341" lon="5.95366">
        <ele>969.3</ele>
        <time>2017-05-27T12:33:36Z</time>
      </trkpt>
      <trkpt lat="45.63375" lon="5.95324">
        <ele>966.1</ele>
        <time>2017-05-27T12:34:09Z</time>
      </trkpt>
      <trkpt lat="45.63416" lon="5.95292">
        <ele>967.7</ele>
        <time>2017-05-27T12:35:27Z</time>
      </trkpt>
      <trkpt lat="45.63461" lon="5.95305">
        <ele>964.7</ele>
        <time>2017-05-27T12:36:54Z</time>
      </trkpt>
      <trkpt lat="45.63506" lon="5.95307">
        <ele>975.9</ele>
        <time>2017-05-27T12:37:23Z</time>
      </trkpt>
      <trkpt lat="45.63548" lon="5.9533">
        <ele>969.4</ele>
        <time>2017-05-27T12:37:54Z</time>
      </trkpt>
      <trkpt lat="45.63593" lon="5.95343">
        <ele>974.4</ele>
        <time>2017-05-27T12:38:31Z</time>
      </trkpt>
      <trkpt lat="45.63638" lon="5.95351">
        <ele>983.2</ele>
        <time>2017-05-27T12:39:02Z</time>
      </trkpt>
      <trkpt lat="45.6368" lon="5.9538">
        <ele>992.5</ele>
        <time>2017-05-27T12:39:33Z</time>
      </trkpt>
      <trkpt lat="45.63716" lon="5.95419">
        <ele>978</ele>
        <time>2017-05-27T12:40:03Z</time>
      </trkpt>
      <trkpt lat="45.63753" lon="5.95458">
        <ele>979</ele>
        <time>2017-05-27T12:40:40Z</time>
      </trkpt>
      <trkpt lat="45.63743" lon="5.95522">
        <ele>973.3</ele>
        <time>2017-05-27T12:41:13Z</time>
      </trkpt>
      <trkpt lat="45.63746" lon="5.95589">
        <ele>964.4</ele>
        <time>2017-05-27T12:41:50Z</time>
      </trkpt>
      <trkpt lat="45.63777" lon="5.95637">
        <ele>968.9</ele>
        <time>2017-05-27T12:42:27Z</time>
      </trkpt>
      <trkpt lat="45.63808" lon="5.95684">
        <ele>974.7</ele>
        <time>2017-05-27T12:43:10Z</time>
      </trkpt>
      <trkpt lat="45.6385" lon="5.95707">
        <ele>979.4</ele>
        <time>2017-05-27T12:43:46Z</time>
      </trkpt>
      <trkpt lat="45.63894" lon="5.95722">
        <ele>990</ele>
        <time>2017-05-27T12:44:27Z</time>
      </trkpt>
      <trkpt lat="45.63936" lon="5.95747">
        <ele>988.6</ele>
        <time>2017-05-27T12:45:06Z</time>
      </trkpt>
      <trkpt lat="45.63982" lon="5.95748">
        <ele>999.8</ele>
        <time>2017-05-27T12:45:50Z</time>
      </trkpt>
      <trkpt lat="45.64028" lon="5.95744">
        <ele>1008.6</ele>
        <time>2017-05-27T12:46:41Z</time>
      </trkpt>
      <trkpt lat="45.64073" lon="5.95741">
        <ele>1017</ele>
        <time>2017-05-27T12:47:30Z</time>
      </trkpt>
      <trkpt lat="45.64118" lon="5.95743">
        <ele>1017.6</ele>
        <time>2017-05-27T12:48:12Z</time>
      </trkpt>
      <trkpt lat="45.64163" lon="5.95734">
        <ele>1025.6</ele>
        <time>2017-05-27T12:48:58Z</time>
      </trkpt>
      <trkpt lat="45.64208" lon="5.95726">
        <ele>1035</ele>
        <time>2017-05-27T12:49:41Z</time>
      </trkpt>
      <trkpt lat="45.64253" lon="5.95731">
        <ele>1040.5</ele>
        <time>2017-05-27T12:50:23Z</time>
      </trkpt>
      <trkpt lat="45.64297" lon="5.95749">
        <ele>1045.2</ele>
        <time>2017-05-27T12:51:05Z</time>
      </trkpt>
      <trkpt lat="45.64334" lon="5.95786">
        <ele>1055.8</ele>
        <time>2017-05-27T12:52:31Z</time>
      </trkpt>
      <trkpt lat="45.6438" lon="5.95789">
        <ele>1064.9</ele>
        <time>2017-05-27T12:53:18Z</time>
      </trkpt>
      <trkpt lat="45.64424" lon="5.95805">
        <ele>1058.6</ele>
        <time>2017-05-27T12:53:48Z</time>
      </trkpt>
      <trkpt lat="45.64463" lon="5.95837">
        <ele>1054.5</ele>
        <time>2017-05-27T12:54:23Z</time>
      </trkpt>
      <trkpt lat="45.64486" lon="5.95892">
        <ele>1050.6</ele>
        <time>2017-05-27T12:55:15Z</time>
      </trkpt>
      <trkpt lat="45.64527" lon="5.95921">
        <ele>1055</ele>
        <time>2017-05-27T12:56:02Z</time>
      </trkpt>
      <trkpt lat="45.64573" lon="5.95925">
        <ele>1061.1</ele>
        <time>2017-05-27T12:56:51Z</time>
      </trkpt>
      <trkpt lat="45.64617" lon="5.95945">
        <ele>1057.2</ele>
        <time>2017-05-27T12:57:46Z</time>
      </trkpt>
      <trkpt lat="45.64663" lon="5.9595">
        <ele>1067.2</ele>
        <time>2017-05-27T12:58:30Z</time>
      </trkpt>
      <trkpt lat="45.64709" lon="5.95953">
        <ele>1074</ele>
        <time>2017-05-27T12:59:20Z</time>
      </trkpt>
      <trkpt lat="45.64755" lon="5.95948">
        <ele>1090.8</ele>
        <time>2017-05-27T13:00:18Z</time>
      </trkpt>
      <trkpt lat="45.64782" lon="5.96007">
        <ele>1079</ele>
        <time>2017-05-27T13:01:55Z</time>
      </trkpt>
      <trkpt lat="45.64826" lon="5.96035">
        <ele>1077</ele>
        <time>2017-05-27T13:02:31Z</time>
      </trkpt>
      <trkpt lat="45.64869" lon="5.96059">
        <ele>1074</ele>
        <time>2017-05-27T13:03:07Z</time>
      </trkpt>
      <trkpt lat="45.64918" lon="5.96065">
        <ele>1080</ele>
        <time>2017-05-27T13:03:51Z</time>
      </trkpt>
      <trkpt lat="45.64964" lon="5.96079">
        <ele>1088</ele>
        <time>2017-05-27T13:04:43Z</time>
      </trkpt>
      <trkpt lat="45.65014" lon="5.96067">
        <ele>1093</ele>
        <time>2017-05-27T13:05:27Z</time>
      </trkpt>
      <trkpt lat="45.6506" lon="5.96062">
        <ele>1102</ele>
        <time>2017-05-27T13:06:15Z</time>
      </trkpt>
      <trkpt lat="45.65092" lon="5.96015">
        <ele>1099</ele>
        <time>2017-05-27T13:07:03Z</time>
      </trkpt>
      <trkpt lat="45.65127" lon="5.95967">
        <ele>1119</ele>
        <time>2017-05-27T13:07:43Z</time>
      </trkpt>
      <trkpt lat="45.65145" lon="5.95906">
        <ele>1127</ele>
        <time>2017-05-27T13:08:32Z</time>
      </trkpt>
      <trkpt lat="45.65191" lon="5.95905">
        <ele>1129.7</ele>
        <time>2017-05-27T13:09:56Z</time>
      </trkpt>
      <trkpt lat="45.65237" lon="5.95907">
        <ele>1139.1</ele>
        <time>2017-05-27T13:10:45Z</time>
      </trkpt>
      <trkpt lat="45.65283" lon="5.95913">
        <ele>1137.3</ele>
        <time>2017-05-27T13:11:14Z</time>
      </trkpt>
      <trkpt lat="45.65325" lon="5.95939">
        <ele>1135.8</ele>
        <time>2017-05-27T13:11:53Z</time>
      </trkpt>
      <trkpt lat="45.65361" lon="5.95979">
        <ele>1134.9</ele>
        <time>2017-05-27T13:12:29Z</time>
      </trkpt>
      <trkpt lat="45.65401" lon="5.96011">
        <ele>1126.2</ele>
        <time>2017-05-27T13:13:10Z</time>
      </trkpt>
      <trkpt lat="45.65447" lon="5.96015">
        <ele>1128.6</ele>
        <time>2017-05-27T13:13:52Z</time>
      </trkpt>
      <trkpt lat="45.65494" lon="5.9602">
        <ele>1127.9</ele>
        <time>2017-05-27T13:14:28Z</time>
      </trkpt>
      <trkpt lat="45.65539" lon="5.96012">
        <ele>1121.2</ele>
        <time>2017-05-27T13:14:55Z</time>
      </trkpt>
      <trkpt lat="45.6557" lon="5.96061">
        <ele>1117.9</ele>
        <time>2017-05-27T13:15:38Z</time>
      </trkpt>
      <trkpt lat="45.65603" lon="5.96105">
        <ele>1113.4</ele>
        <time>2017-05-27T13:16:21Z</time>
      </trkpt>
      <trkpt lat="45.65637" lon="5.96155">
        <ele>1094</ele>
        <time>2017-05-27T13:16:55Z</time>
      </trkpt>
      <trkpt lat="45.65672" lon="5.96204">
        <ele>1082</ele>
        <time>2017-05-27T13:17:31Z</time>
      </trkpt>
      <trkpt lat="45.65716" lon="5.96228">
        <ele>1075</ele>
        <time>2017-05-27T13:18:07Z</time>
      </trkpt>
      <trkpt lat="45.65767" lon="5.96238">
        <ele>1072</ele>
        <time>2017-05-27T13:18:47Z</time>
      </trkpt>
      <trkpt lat="45.65815" lon="5.96234">
        <ele>1072</ele>
        <time>2017-05-27T13:19:23Z</time>
      </trkpt>
      <trkpt lat="45.65856" lon="5.96263">
        <ele>1069</ele>
        <time>2017-05-27T13:19:55Z</time>
      </trkpt>
      <trkpt lat="45.65902" lon="5.96275">
        <ele>1067</ele>
        <time>2017-05-27T13:20:34Z</time>
      </trkpt>
      <trkpt lat="45.6595" lon="5.96254">
        <ele>1068</ele>
        <time>2017-05-27T13:21:10Z</time>
      </trkpt>
      <trkpt lat="45.65994" lon="5.96234">
        <ele>1073.2</ele>
        <time>2017-05-27T13:23:16Z</time>
      </trkpt>
      <trkpt lat="45.66039" lon="5.96245">
        <ele>1055</ele>
        <time>2017-05-27T13:23:44Z</time>
      </trkpt>
      <trkpt lat="45.66083" lon="5.96263">
        <ele>1047.6</ele>
        <time>2017-05-27T13:24:20Z</time>
      </trkpt>
      <trkpt lat="45.66127" lon="5.96281">
        <ele>1043.9</ele>
        <time>2017-05-27T13:24:50Z</time>
      </trkpt>
      <trkpt lat="45.66172" lon="5.9629">
        <ele>1043.3</ele>
        <time>2017-05-27T13:25:23Z</time>
      </trkpt>
      <trkpt lat="45.66218" lon="5.96282">
        <ele>1051.8</ele>
        <time>2017-05-27T13:26:19Z</time>
      </trkpt>
      <trkpt lat="45.66262" lon="5.96265">
        <ele>1045.3</ele>
        <time>2017-05-27T13:27:03Z</time>
      </trkpt>
      <trkpt lat="45.66294" lon="5.9622">
        <ele>1059.5</ele>
        <time>2017-05-27T13:27:50Z</time>
      </trkpt>
      <trkpt lat="45.66306" lon="5.96158">
        <ele>1057.3</ele>
        <time>2017-05-27T13:28:33Z</time>
      </trkpt>
      <trkpt lat="45.66338" lon="5.96111">
        <ele>1061.4</ele>
        <time>2017-05-27T13:29:10Z</time>
      </trkpt>
      <trkpt lat="45.6634" lon="5.96046">
        <ele>1076.7</ele>
        <time>2017-05-27T13:29:52Z</time>
      </trkpt>
      <trkpt lat="45.6638" lon="5.96015">
        <ele>1062.4</ele>
        <time>2017-05-27T13:30:40Z</time>
      </trkpt>
      <trkpt lat="45.6642" lon="5.95983">
        <ele>1081.6</ele>
        <time>2017-05-27T13:32:45Z</time>
      </trkpt>
      <trkpt lat="45.66466" lon="5.95986">
        <ele>1066.1</ele>
        <time>2017-05-27T13:33:13Z</time>
      </trkpt>
      <trkpt lat="45.66511" lon="5.95987">
        <ele>1084.5</ele>
        <time>2017-05-27T13:34:06Z</time>
      </trkpt>
      <trkpt lat="45.66556" lon="5.95994">
        <ele>1073.4</ele>
        <time>2017-05-27T13:34:37Z</time>
      </trkpt>
      <trkpt lat="45.66591" lon="5.95953">
        <ele>1053.7</ele>
        <time>2017-05-27T13:39:16Z</time>
      </trkpt>
      <trkpt lat="45.66616" lon="5.95899">
        <ele>1049.2</ele>
        <time>2017-05-27T13:40:11Z</time>
      </trkpt>
      <trkpt lat="45.66637" lon="5.95842">
        <ele>1027.5</ele>
        <time>2017-05-27T13:41:03Z</time>
      </trkpt>
      <trkpt lat="45.66665" lon="5.95791">
        <ele>987</ele>
        <time>2017-05-27T13:42:34Z</time>
      </trkpt>
      <trkpt lat="45.66709" lon="5.9578">
        <ele>968.6</ele>
        <time>2017-05-27T13:43:34Z</time>
      </trkpt>
      <trkpt lat="45.66745" lon="5.95739">
        <ele>934</ele>
        <time>2017-05-27T13:45:42Z</time>
      </trkpt>
      <trkpt lat="45.66784" lon="5.95705">
        <ele>918.4</ele>
        <time>2017-05-27T13:46:43Z</time>
      </trkpt>
      <trkpt lat="45.66829" lon="5.95697">
        <ele>907.2</ele>
        <time>2017-05-27T13:47:25Z</time>
      </trkpt>
      <trkpt lat="45.66874" lon="5.95691">
        <ele>888.7</ele>
        <time>2017-05-27T13:48:12Z</time>
      </trkpt>
      <trkpt lat="45.66919" lon="5.9569">
        <ele>870.6</ele>
        <time>2017-05-27T13:48:59Z</time>
      </trkpt>
      <trkpt lat="45.66964" lon="5.95703">
        <ele>857.1</ele>
        <time>2017-05-27T13:49:44Z</time>
      </trkpt>
      <trkpt lat="45.67005" lon="5.9573">
        <ele>845.8</ele>
        <time>2017-05-27T13:50:20Z</time>
      </trkpt>
      <trkpt lat="45.67048" lon="5.95751">
        <ele>838.9</ele>
        <time>2017-05-27T13:51:05Z</time>
      </trkpt>
      <trkpt lat="45.67087" lon="5.95718">
        <ele>836.9</ele>
        <time>2017-05-27T13:52:12Z</time>
      </trkpt>
      <trkpt lat="45.67124" lon="5.95681">
        <ele>814.1</ele>
        <time>2017-05-27T13:52:56Z</time>
      </trkpt>
      <trkpt lat="45.67154" lon="5.95632">
        <ele>800.3</ele>
        <time>2017-05-27T13:53:45Z</time>
      </trkpt>
      <trkpt lat="45.67194" lon="5.95663">
        <ele>780.3</ele>
        <time>2017-05-27T13:54:39Z</time>
      </trkpt>
      <trkpt lat="45.67239" lon="5.95674">
        <ele>749.4</ele>
        <time>2017-05-27T13:56:00Z</time>
      </trkpt>
      <trkpt lat="45.67281" lon="5.95649">
        <ele>730.3</ele>
        <time>2017-05-27T13:58:29Z</time>
      </trkpt>
      <trkpt lat="45.67327" lon="5.95656">
        <ele>702.6</ele>
        <time>2017-05-27T13:59:30Z</time>
      </trkpt>
      <trkpt lat="45.67372" lon="5.95645">
        <ele>686.2</ele>
        <time>2017-05-27T14:00:03Z</time>
      </trkpt>
      <trkpt lat="45.67407" lon="5.95604">
        <ele>690.6</ele>
        <time>2017-05-27T14:00:50Z</time>
      </trkpt>
      <trkpt lat="45.67452" lon="5.9559">
        <ele>674.2</ele>
        <time>2017-05-27T14:01:24Z</time>
      </trkpt>
      <trkpt lat="45.67497" lon="5.95586">
        <ele>666.3</ele>
        <time>2017-05-27T14:01:54Z</time>
      </trkpt>
      <trkpt lat="45.67542" lon="5.95597">
        <ele>652.3</ele>
        <time>2017-05-27T14:02:30Z</time>
      </trkpt>
      <trkpt lat="45.67583" lon="5.9557">
        <ele>643.8</ele>
        <time>2017-05-27T14:03:06Z</time>
      </trkpt>
      <trkpt lat="45.67614" lon="5.95523">
        <ele>639.7</ele>
        <time>2017-05-27T14:03:50Z</time>
      </trkpt>
      <trkpt lat="45.67622" lon="5.9546">
        <ele>630.7</ele>
        <time>2017-05-27T14:04:56Z</time>
      </trkpt>
      <trkpt lat="45.67663" lon="5.95433">
        <ele>619.9</ele>
        <time>2017-05-27T14:05:32Z</time>
      </trkpt>
      <trkpt lat="45.67701" lon="5.95394">
        <ele>605.7</ele>
        <time>2017-05-27T14:06:10Z</time>
      </trkpt>
      <trkpt lat="45.67735" lon="5.95349">
        <ele>601.8</ele>
        <time>2017-05-27T14:06:44Z</time>
      </trkpt>
      <trkpt lat="45.67772" lon="5.9531">
        <ele>631.2</ele>
        <time>2017-05-27T14:07:22Z</time>
      </trkpt>
      <trkpt lat="45.67809" lon="5.95271">
        <ele>618.5</ele>
        <time>2017-05-27T14:07:57Z</time>
      </trkpt>
      <trkpt lat="45.67853" lon="5.95251">
        <ele>579.6</ele>
        <time>2017-05-27T14:08:32Z</time>
      </trkpt>
      <trkpt lat="45.67893" lon="5.95222">
        <ele>583.1</ele>
        <time>2017-05-27T14:08:58Z</time>
      </trkpt>
      <trkpt lat="45.67929" lon="5.95183">
        <ele>572.7</ele>
        <time>2017-05-27T14:09:33Z</time>
      </trkpt>
      <trkpt lat="45.67955" lon="5.9513">
        <ele>572.4</ele>
        <time>2017-05-27T14:10:20Z</time>
      </trkpt>
      <trkpt lat="45.67946" lon="5.95066">
        <ele>582.5</ele>
        <time>2017-05-27T14:10:43Z</time>
      </trkpt>
      <trkpt lat="45.67922" lon="5.95009">
        <ele>580.1</ele>
        <time>2017-05-27T14:11:11Z</time>
      </trkpt>
      <trkpt lat="45.67881" lon="5.94981">
        <ele>570.8</ele>
        <time>2017-05-27T14:11:51Z</time>
      </trkpt>
      <trkpt lat="45.67881" lon="5.94916">
        <ele>543.4</ele>
        <time>2017-05-27T14:12:29Z</time>
      </trkpt>
      <trkpt lat="45.67878" lon="5.94852">
        <ele>550.9</ele>
        <time>2017-05-27T14:13:17Z</time>
      </trkpt>
      <trkpt lat="45.6785" lon="5.94801">
        <ele>548.4</ele>
        <time>2017-05-27T14:13:51Z</time>
      </trkpt>
      <trkpt lat="45.67862" lon="5.94738">
        <ele>540.4</ele>
        <time>2017-05-27T14:14:44Z</time>
      </trkpt>
      <trkpt lat="45.67885" lon="5.94683">
        <ele>531.5</ele>
        <time>2017-05-27T14:15:17Z</time>
      </trkpt>
      <trkpt lat="45.67895" lon="5.94619">
        <ele>519.8</ele>
        <time>2017-05-27T14:16:00Z</time>
      </trkpt>
      <trkpt lat="45.67886" lon="5.94555">
        <ele>514.7</ele>
        <time>2017-05-27T14:16:43Z</time>
      </trkpt>
      <trkpt lat="45.67862" lon="5.945">
        <ele>502.8</ele>
        <time>2017-05-27T14:17:27Z</time>
      </trkpt>
      <trkpt lat="45.67836" lon="5.94446">
        <ele>497.4</ele>
        <time>2017-05-27T14:18:03Z</time>
      </trkpt>
      <trkpt lat="45.67856" lon="5.94387">
        <ele>491.1</ele>
        <time>2017-05-27T14:18:42Z</time>
      </trkpt>
      <trkpt lat="45.67889" lon="5.9434">
        <ele>485.7</ele>
        <time>2017-05-27T14:19:17Z</time>
      </trkpt>
      <trkpt lat="45.67928" lon="5.94305">
        <ele>480.4</ele>
        <time>2017-05-27T14:19:47Z</time>
      </trkpt>
      <trkpt lat="45.67968" lon="5.94274">
        <ele>473.4</ele>
        <time>2017-05-27T14:20:16Z</time>
      </trkpt>
      <trkpt lat="45.67994" lon="5.9422">
        <ele>476.9</ele>
        <time>2017-05-27T14:20:54Z</time>
      </trkpt>
      <trkpt lat="45.68008" lon="5.94159">
        <ele>465.1</ele>
        <time>2017-05-27T14:22:21Z</time>
      </trkpt>
      <trkpt lat="45.68001" lon="5.94094">
        <ele>458.3</ele>
        <time>2017-05-27T14:22:58Z</time>
      </trkpt>
      <trkpt lat="45.68011" lon="5.9403">
        <ele>458.1</ele>
        <time>2017-05-27T14:23:30Z</time>
      </trkpt>
      <trkpt lat="45.68021" lon="5.93967">
        <ele>448</ele>
        <time>2017-05-27T14:24:08Z</time>
      </trkpt>
      <trkpt lat="45.68024" lon="5.93902">
        <ele>441</ele>
        <time>2017-05-27T14:24:47Z</time>
      </trkpt>
      <trkpt lat="45.68033" lon="5.93839">
        <ele>428.8</ele>
        <time>2017-05-27T14:25:24Z</time>
      </trkpt>
      <trkpt lat="45.68037" lon="5.93774">
        <ele>426.3</ele>
        <time>2017-05-27T14:25:53Z</time>
      </trkpt>
      <trkpt lat="45.68079" lon="5.93749">
        <ele>431.3</ele>
        <time>2017-05-27T14:26:42Z</time>
      </trkpt>
      <trkpt lat="45.68124" lon="5.93756">
        <ele>425.9</ele>
        <time>2017-05-27T14:27:22Z</time>
      </trkpt>
      <trkpt lat="45.68168" lon="5.93775">
        <ele>430.7</ele>
        <time>2017-05-27T14:27:57Z</time>
      </trkpt>
      <trkpt lat="45.68199" lon="5.93727">
        <ele>417.6</ele>
        <time>2017-05-27T14:28:58Z</time>
      </trkpt>
      <trkpt lat="45.6821" lon="5.93664">
        <ele>421.8</ele>
        <time>2017-05-27T14:29:26Z</time>
      </trkpt>
      <trkpt lat="45.6823" lon="5.93606">
        <ele>416.6</ele>
        <time>2017-05-27T14:30:10Z</time>
      </trkpt>
      <trkpt lat="45.68258" lon="5.93555">
        <ele>412.6</ele>
        <time>2017-05-27T14:31:17Z</time>
      </trkpt>
      <trkpt lat="45.68299" lon="5.93529">
        <ele>407.4</ele>
        <time>2017-05-27T14:31:53Z</time>
      </trkpt>
      <trkpt lat="45.68324" lon="5.93474">
        <ele>404.8</ele>
        <time>2017-05-27T14:32:28Z</time>
      </trkpt>
      <trkpt lat="45.68346" lon="5.93417">
        <ele>394.5</ele>
        <time>2017-05-27T14:33:03Z</time>
      </trkpt>
      <trkpt lat="45.68368" lon="5.93359">
        <ele>391.6</ele>
        <time>2017-05-27T14:33:39Z</time>
      </trkpt>
      <trkpt lat="45.68391" lon="5.93302">
        <ele>390.9</ele>
        <time>2017-05-27T14:34:14Z</time>
      </trkpt>
      <trkpt lat="45.68404" lon="5.93239">
        <ele>390.1</ele>
        <time>2017-05-27T14:34:49Z</time>
      </trkpt>
      <trkpt lat="45.68415" lon="5.93175">
        <ele>388.3</ele>
        <time>2017-05-27T14:35:24Z</time>
      </trkpt>
      <trkpt lat="45.68425" lon="5.93111">
        <ele>382.2</ele>
        <time>2017-05-27T14:36:00Z</time>
      </trkpt>
      <trkpt lat="45.68442" lon="5.9305">
        <ele>380.3</ele>
        <time>2017-05-27T14:36:39Z</time>
      </trkpt>
      <trkpt lat="45.6846" lon="5.9299">
        <ele>377.4</ele>
        <time>2017-05-27T14:37:12Z</time>
      </trkpt>
      <trkpt lat="45.6848" lon="5.92933">
        <ele>379.1</ele>
        <time>2017-05-27T14:37:56Z</time>
      </trkpt>
      <trkpt lat="45.68491" lon="5.92869">
        <ele>374.5</ele>
        <time>2017-05-27T14:38:30Z</time>
      </trkpt>
      <trkpt lat="45.68491" lon="5.92804">
        <ele>382.3</ele>
        <time>2017-05-27T14:39:02Z</time>
      </trkpt>
      <trkpt lat="45.68489" lon="5.92738">
        <ele>366.5</ele>
        <time>2017-05-27T14:39:42Z</time>
      </trkpt>
      <trkpt lat="45.68497" lon="5.92674">
        <ele>368</ele>
        <time>2017-05-27T14:40:13Z</time>
      </trkpt>
      <trkpt lat="45.68507" lon="5.9261">
        <ele>368.6</ele>
        <time>2017-05-27T14:40:45Z</time>
      </trkpt>
      <trkpt lat="45.68547" lon="5.92578">
        <ele>362.7</ele>
        <time>2017-05-27T14:41:34Z</time>
      </trkpt>
      <trkpt lat="45.68591" lon="5.92564">
        <ele>359.6</ele>
        <time>2017-05-27T14:42:11Z</time>
      </trkpt>
      <trkpt lat="45.68628" lon="5.92526">
        <ele>358.5</ele>
        <time>2017-05-27T14:42:42Z</time>
      </trkpt>
      <trkpt lat="45.68661" lon="5.9248">
        <ele>350.4</ele>
        <time>2017-05-27T14:43:17Z</time>
      </trkpt>
      <trkpt lat="45.68684" lon="5.92423">
        <ele>353.7</ele>
        <time>2017-05-27T14:43:49Z</time>
      </trkpt>
      <trkpt lat="45.687" lon="5.92361">
        <ele>347.6</ele>
        <time>2017-05-27T14:44:26Z</time>
      </trkpt>
      <trkpt lat="45.68721" lon="5.92303">
        <ele>343.2</ele>
        <time>2017-05-27T14:44:58Z</time>
      </trkpt>
      <trkpt lat="45.68749" lon="5.92251">
        <ele>343.2</ele>
        <time>2017-05-27T14:45:32Z</time>
      </trkpt>
      <trkpt lat="45.68773" lon="5.92193">
        <ele>338.5</ele>
        <time>2017-05-27T14:46:14Z</time>
      </trkpt>
      <trkpt lat="45.68794" lon="5.92133">
        <ele>331.4</ele>
        <time>2017-05-27T14:46:52Z</time>
      </trkpt>
      <trkpt lat="45.68806" lon="5.92069">
        <ele>333</ele>
        <time>2017-05-27T14:47:29Z</time>
      </trkpt>
      <trkpt lat="45.68827" lon="5.92011">
        <ele>313.1</ele>
        <time>2017-05-27T14:47:59Z</time>
      </trkpt>
      <trkpt lat="45.68835" lon="5.91947">
        <ele>314.4</ele>
        <time>2017-05-27T14:48:37Z</time>
      </trkpt>
      <trkpt lat="45.68861" lon="5.91891">
        <ele>307.6</ele>
        <time>2017-05-27T14:49:12Z</time>
      </trkpt>
      <trkpt lat="45.68868" lon="5.91827">
        <ele>301.9</ele>
        <time>2017-05-27T14:49:57Z</time>
      </trkpt>
      <trkpt lat="45.68875" lon="5.91761">
        <ele>297</ele>
        <time>2017-05-27T14:50:49Z</time>
      </trkpt>
      <trkpt lat="45.68836" lon="5.91729">
        <ele>282.4</ele>
        <time>2017-05-27T14:51:29Z</time>
      </trkpt>
      <trkpt lat="45.68808" lon="5.91678">
        <ele>294.4</ele>
        <time>2017-05-27T14:53:03Z</time>
      </trkpt>
      <trkpt lat="45.68764" lon="5.91671">
        <ele>296.6</ele>
        <time>2017-05-27T14:53:35Z</time>
      </trkpt>
      <trkpt lat="45.6877" lon="5.91607">
        <ele>284.3</ele>
        <time>2017-05-27T14:54:07Z</time>
      </trkpt>
      <trkpt lat="45.68774" lon="5.91543">
        <ele>276.8</ele>
        <time>2017-05-27T14:55:10Z</time>
      </trkpt>
      <trkpt lat="45.68731" lon="5.91537">
        <ele>276.2</ele>
        <time>2017-05-27T14:55:59Z</time>
      </trkpt>
    </trkseg>
  </trk>
</gpx>